Data for 08/15/2008

Time Sea-Level Adjusted Pressure Absolute Pressure Temperature Relative Humidity Dew Point Precipitation   
(mb) (inHg) (mb) (inHg) (C) (F) (%) (C) (F) (mm) (in)
00:01 1028 30.36 858 25.34 14.1 57.4 56 5.5 41.9 0
00:02 1028 30.36 858 25.34 14.2 57.5 55 5.4 41.7 0
00:03 1028 30.36 858 25.34 14.3 57.7 55 5.5 41.9 0
00:04 1028 30.36 858 25.34 14.3 57.7 56 5.6 42.1 0
00:05 1028 30.36 858 25.34 14.3 57.7 56 5.7 42.3 0
00:06 1028 30.36 858 25.34 14.3 57.7 56 5.8 42.4 0
00:07 1028 30.36 858 25.34 14.2 57.5 57 5.7 42.3 0
00:08 1028 30.36 858 25.34 14.1 57.4 56 5.6 42.2 0
00:09 1028 30.36 858 25.34 14.1 57.4 57 5.8 42.5 0
00:10 1028 30.36 858 25.34 14 57.1 57 5.8 42.4 0
00:11 1028 30.36 858 25.34 13.8 56.9 58 5.8 42.5 0
00:12 1028 30.36 858 25.34 13.7 56.7 59 6 42.7 0
00:13 1028 30.36 858 25.34 13.6 56.5 60 6.1 43 0
00:14 1028 30.36 858 25.34 13.5 56.2 61 6.2 43.1 0
00:15 1028 30.36 858 25.34 13.4 56.2 62 6.3 43.3 0
00:16 1028 30.36 858 25.34 13.3 55.9 63 6.4 43.4 0
00:17 1028 30.36 858 25.34 13.2 55.7 63 6.4 43.6 0
00:18 1028 30.36 858 25.34 13.1 55.6 60 5.7 42.2 0
00:19 1028 30.36 858 25.34 13.3 56 59 5.5 41.9 0
00:20 1028 30.36 858 25.34 13.5 56.3 59 5.7 42.2 0
00:21 1028 30.36 858 25.34 13.6 56.5 59 5.8 42.5 0
00:22 1028 30.36 858 25.34 13.7 56.6 59 5.9 42.6 0
00:23 1028 30.36 858 25.34 13.7 56.7 59 5.8 42.5 0
00:24 1028 30.36 858 25.34 13.8 56.8 59 6 42.8 0
00:25 1028 30.36 858 25.34 13.8 56.9 59 6 42.8 0
00:26 1028 30.36 858 25.34 13.8 56.8 59 6 42.8 0
00:27 1028 30.36 858 25.34 13.8 56.8 59 6 42.7 0
00:28 1028 30.36 858 25.34 13.8 56.8 60 6.1 43 0
00:29 1028 30.36 858 25.34 13.7 56.7 60 6.2 43.1 0
00:30 1028 30.36 858 25.34 13.7 56.6 60 6.2 43.1 0
00:31 1028 30.36 858 25.34 13.7 56.6 61 6.3 43.3 0
00:32 1028 30.36 858 25.34 13.6 56.5 61 6.4 43.5 0
00:33 1028 30.36 858 25.34 13.6 56.4 62 6.5 43.7 0
00:34 1028 30.36 858 25.34 13.5 56.3 63 6.7 44 0
00:35 1028 30.36 858 25.34 13.4 56.1 64 6.8 44.2 0
00:36 1028 30.36 858 25.34 13.3 56 64 6.7 44.1 0
00:37 1028 30.36 858 25.34 13.3 55.9 65 6.8 44.3 0
00:38 1028 30.36 858 25.34 13.2 55.8 65 6.9 44.5 0
00:39 1028 30.36 858 25.34 13.2 55.7 67 7.3 45.2 0
00:40 1028 30.36 858 25.34 13 55.4 69 7.6 45.7 0
00:41 1028 30.36 858 25.34 12.7 54.9 69 7.2 44.9 0
00:42 1028 30.36 858 25.34 12.5 54.5 70 7.2 45 0
00:43 1028 30.36 858 25.34 12.4 54.4 70 7.1 44.8 0
00:44 1028 30.36 858 25.34 12.4 54.3 70 7 44.6 0
00:45 1028 30.36 858 25.34 12.4 54.3 67 6.5 43.7 0
00:46 1028 30.36 858 25.34 12.5 54.5 66 6.3 43.3 0
00:47 1028 30.36 858 25.34 12.7 54.8 67 6.7 44.1 0
00:48 1028 30.36 858 25.34 12.7 54.8 66 6.6 43.8 0
00:49 1028 30.36 858 25.34 12.7 54.8 65 6.4 43.5 0
00:50 1028 30.36 858 25.34 12.7 54.9 65 6.3 43.4 0
00:51 1028 30.36 858 25.34 12.8 55 64 6.3 43.3 0
00:52 1028 30.36 858 25.34 12.9 55.2 65 6.5 43.6 0
00:53 1028 30.36 858 25.34 13.1 55.5 63 6.2 43.2 0
00:54 1028 30.36 858 25.34 13.1 55.6 64 6.4 43.6 0
00:55 1028 30.36 858 25.34 13.1 55.6 64 6.5 43.8 0
00:56 1028 30.36 858 25.34 13.1 55.5 61 5.8 42.4 0
00:57 1028 30.36 858 25.34 13.1 55.6 63 6.2 43.2 0
00:58 1028 30.36 858 25.34 13.2 55.8 60 5.7 42.3 0
00:59 1028 30.36 858 25.34 13.4 56.2 60 5.8 42.5 0
01:00 1028 30.36 858 25.34 13.6 56.4 60 6 42.7 0
01:01 1028 30.36 858 25.34 13.5 56.3 64 6.9 44.5 0
01:02 1028 30.36 858 25.34 13.3 55.9 67 7.4 45.3 0
01:03 1028 30.36 858 25.34 12.9 55.3 67 7 44.6 0
01:04 1028 30.36 858 25.34 12.8 55 68 7 44.6 0
01:05 1028 30.36 858 25.34 12.7 54.8 68 6.9 44.5 0
01:06 1028 30.36 858 25.34 12.6 54.6 68 6.9 44.4 0
01:07 1028 30.36 858 25.34 12.5 54.4 70 7.2 45 0
01:08 1028 30.36 858 25.34 12.3 54.2 69 6.9 44.4 0
01:09 1028 30.36 858 25.34 12.2 54 71 7.2 44.9 0
01:10 1028 30.36 858 25.34 12.1 53.8 71 7.1 44.8 0
01:11 1028 30.36 858 25.34 12 53.6 72 7.2 44.9 0
01:12 1028 30.36 858 25.34 11.9 53.4 72 7 44.5 0
01:13 1028 30.36 858 25.34 11.8 53.2 72 6.9 44.4 0
01:14 1028 30.36 858 25.34 11.8 53.2 71 6.7 44 0
01:15 1028 30.36 858 25.34 11.9 53.4 70 6.5 43.7 0
01:16 1028 30.36 858 25.34 11.9 53.4 71 6.9 44.4 0
01:17 1028 30.36 858 25.34 11.7 53.1 73 7.1 44.7 0
01:18 1028 30.36 858 25.34 11.4 52.5 75 7.1 44.8 0
01:19 1028 30.36 858 25.34 11.1 52.1 76 7.1 44.7 0
01:20 1028 30.36 858 25.34 11 51.9 76 7 44.6 0
01:21 1028 30.36 858 25.34 11 51.7 76 7 44.6 0
01:22 1028 30.36 858 25.34 10.9 51.7 75 6.7 44 0
01:23 1028 30.36 858 25.34 11.1 51.9 73 6.4 43.6 0
01:24 1028 30.36 858 25.34 11.3 52.4 72 6.6 43.8 0
01:25 1028 30.36 858 25.34 11.4 52.6 73 6.8 44.2 0
01:26 1028 30.36 858 25.34 11.4 52.5 74 6.9 44.3 0
01:27 1028 30.36 858 25.34 11.3 52.3 74 6.8 44.3 0
01:28 1028 30.36 858 25.34 11.1 51.9 75 6.9 44.4 0
01:29 1028 30.36 858 25.34 10.8 51.5 77 6.9 44.4 0
01:30 1028 30.36 858 25.34 10.6 51.1 77 6.8 44.3 0
01:31 1028 30.36 858 25.34 10.4 50.6 79 6.8 44.2 0
01:32 1028 30.36 858 25.34 10.4 50.6 78 6.8 44.2 0
01:33 1028 30.36 858 25.34 10.3 50.6 79 6.8 44.2 0
01:34 1028 30.36 858 25.34 10.3 50.5 78 6.7 44 0
01:35 1028 30.36 858 25.34 10.3 50.5 78 6.7 44 0
01:36 1028 30.36 858 25.34 10.3 50.5 78 6.7 44.1 0
01:37 1028 30.36 858 25.34 10.1 50.2 77 6.3 43.3 0
01:38 1028 30.36 858 25.34 10.3 50.5 73 5.6 42.2 0
01:39 1028 30.36 858 25.34 10.8 51.4 72 6 42.8 0
01:40 1028 30.36 858 25.34 11 51.8 72 6.2 43.1 0
01:41 1028 30.36 858 25.34 11.2 52.1 72 6.3 43.3 0
01:42 1028 30.36 858 25.34 11.3 52.4 67 5.5 41.9 0
01:43 1029 30.39 858 25.34 11.8 53.2 68 6 42.9 0
01:44 1028 30.36 858 25.34 11.9 53.4 67 6.1 43 0
01:45 1028 30.36 858 25.34 11.9 53.5 69 6.6 43.8 0
01:46 1028 30.36 858 25.34 11.8 53.2 71 6.7 44 0
01:47 1028 30.36 858 25.34 11.5 52.7 71 6.5 43.7 0
01:48 1029 30.39 858 25.34 11.4 52.4 71 6.3 43.3 0
01:49 1028 30.36 858 25.34 11.3 52.3 70 6.1 43 0
01:50 1028 30.36 858 25.34 11.4 52.5 67 5.5 41.9 0
01:51 1028 30.36 858 25.34 11.7 53.1 66 5.7 42.2 0
01:52 1028 30.36 858 25.34 12 53.5 65 5.6 42.2 0
01:53 1028 30.36 858 25.34 12.1 53.8 64 5.5 42 0
01:54 1028 30.36 858 25.34 12.3 54.2 63 5.6 42 0
01:55 1028 30.36 858 25.34 12.5 54.5 62 5.6 42.1 0
01:56 1028 30.36 858 25.34 12.6 54.7 62 5.7 42.2 0
01:57 1028 30.36 858 25.34 12.7 54.8 62 5.7 42.2 0
01:58 1028 30.36 858 25.34 12.5 54.6 65 6.2 43.2 0
01:59 1028 30.36 858 25.34 12.1 53.7 67 6.1 43 0
02:00 1028 30.36 858 25.34 11.8 53.2 69 6.3 43.3 0
02:01 1028 30.36 858 25.34 11.5 52.6 68 5.8 42.5 0
02:02 1028 30.36 858 25.34 11.4 52.6 70 6.2 43.2 0
02:03 1028 30.36 858 25.34 11.1 52 72 6.3 43.3 0
02:04 1028 30.36 858 25.34 10.8 51.4 73 6.2 43.1 0
02:05 1028 30.36 858 25.34 10.5 50.9 73 6 42.7 0
02:06 1028 30.36 858 25.34 10.4 50.8 74 5.9 42.7 0
02:07 1028 30.36 858 25.34 10.6 51.1 73 5.9 42.6 0
02:08 1028 30.36 858 25.34 10.8 51.4 70 5.6 42 0
02:09 1028 30.36 858 25.34 11 51.8 70 5.7 42.3 0
02:10 1028 30.36 858 25.34 10.9 51.7 71 5.8 42.5 0
02:11 1028 30.36 858 25.34 10.7 51.2 72 5.9 42.5 0
02:12 1028 30.36 858 25.34 10.6 51 70 5.4 41.7 0
02:13 1028 30.36 858 25.34 11 51.8 70 5.7 42.3 0
02:14 1028 30.36 858 25.34 11 51.8 70 5.7 42.2 0
02:15 1028 30.36 858 25.34 11.1 52 69 5.7 42.2 0
02:16 1028 30.36 858 25.34 11.1 52 69 5.7 42.2 0
02:17 1028 30.36 858 25.34 11.1 52.1 69 5.7 42.3 0
02:18 1028 30.36 858 25.34 11.1 52 70 5.8 42.4 0
02:19 1028 30.36 858 25.34 10.9 51.6 71 5.8 42.5 0
02:20 1028 30.36 858 25.34 10.8 51.4 71 5.8 42.4 0
02:21 1028 30.36 858 25.34 10.8 51.4 71 5.8 42.5 0
02:22 1028 30.36 858 25.34 10.8 51.4 71 5.8 42.4 0
02:23 1028 30.36 858 25.34 10.8 51.4 71 5.8 42.5 0
02:24 1028 30.36 858 25.34 10.6 51 72 5.8 42.4 0
02:25 1028 30.36 858 25.34 10.5 50.9 72 5.8 42.4 0
02:26 1028 30.36 858 25.34 10.5 51 72 5.8 42.4 0
02:27 1028 30.36 858 25.34 10.5 50.9 72 5.8 42.4 0
02:28 1028 30.36 858 25.34 10.4 50.8 73 5.8 42.4 0
02:29 1028 30.36 858 25.34 10.5 50.9 73 5.8 42.5 0
02:30 1028 30.36 858 25.34 10.5 50.9 73 5.9 42.5 0
02:31 1028 30.36 858 25.34 10.5 51 72 5.8 42.4 0
02:32 1028 30.36 858 25.34 10.6 51.1 72 5.8 42.4 0
02:33 1028 30.36 858 25.34 10.8 51.4 71 5.8 42.5 0
02:34 1028 30.36 858 25.34 10.8 51.5 71 5.8 42.5 0
02:35 1028 30.36 858 25.34 10.9 51.6 71 5.9 42.5 0
02:36 1028 30.36 858 25.34 10.9 51.6 72 6 42.8 0
02:37 1028 30.36 858 25.34 10.9 51.5 72 6 42.8 0
02:38 1028 30.36 858 25.34 10.8 51.4 72 6.1 42.9 0
02:39 1028 30.36 858 25.34 10.8 51.5 72 6.1 42.9 0
02:40 1028 30.36 858 25.34 10.8 51.5 73 6.1 43 0
02:41 1028 30.36 858 25.34 10.9 51.5 72 6.1 43 0
02:42 1028 30.36 858 25.34 10.9 51.6 72 6.1 42.9 0
02:43 1028 30.36 858 25.34 11 51.8 72 6.1 43 0
02:44 1028 30.36 858 25.34 11.1 51.9 72 6.2 43.2 0
02:45 1028 30.36 857 25.31 11.1 52 71 6.1 43 0
02:46 1028 30.36 858 25.34 11.1 52.1 71 6.1 43 0
02:47 1028 30.36 857 25.31 11.2 52.1 71 6.2 43.1 0
02:48 1028 30.36 857 25.31 11.2 52.1 71 6.1 43 0
02:49 1028 30.36 857 25.31 11.2 52.1 71 6.2 43.1 0
02:50 1028 30.36 857 25.31 11.1 52 71 6.1 43 0
02:51 1028 30.36 857 25.31 11.1 51.9 71 6.1 42.9 0
02:52 1028 30.36 857 25.31 11.1 51.9 70 5.9 42.7 0
02:53 1028 30.36 857 25.31 11.1 52 70 5.9 42.7 0
02:54 1028 30.36 857 25.31 11.2 52.1 70 6 42.7 0
02:55 1028 30.36 857 25.31 11.1 52 70 5.9 42.6 0
02:56 1028 30.36 857 25.31 11.1 51.9 71 6.1 42.9 0
02:57 1028 30.36 857 25.31 11 51.8 72 6.1 43 0
02:58 1028 30.36 857 25.31 10.7 51.3 72 5.9 42.7 0
02:59 1028 30.36 857 25.31 10.7 51.3 72 5.9 42.7 0
03:00 1028 30.36 857 25.31 10.6 51.1 72 5.9 42.6 0
03:01 1028 30.36 857 25.31 10.6 51 73 5.9 42.6 0
03:02 1028 30.36 857 25.31 10.5 51 73 5.9 42.6 0
03:03 1028 30.36 857 25.31 10.6 51 72 5.8 42.4 0
03:04 1028 30.36 857 25.31 10.7 51.3 71 5.7 42.3 0
03:05 1028 30.36 857 25.31 10.8 51.4 72 5.9 42.6 0
03:06 1028 30.36 857 25.31 10.8 51.4 72 5.9 42.6 0
03:07 1028 30.36 857 25.31 10.9 51.5 71 5.9 42.6 0
03:08 1028 30.36 857 25.31 10.9 51.6 71 5.9 42.6 0
03:09 1028 30.36 857 25.31 10.9 51.5 71 5.8 42.4 0
03:10 1028 30.36 857 25.31 10.8 51.4 72 6 42.8 0
03:11 1028 30.36 857 25.31 10.6 51.1 72 5.9 42.6 0
03:12 1028 30.36 857 25.31 10.6 51 73 5.9 42.7 0
03:13 1028 30.36 857 25.31 10.5 50.8 73 5.9 42.6 0
03:14 1028 30.36 857 25.31 10.4 50.7 73 5.9 42.5 0
03:15 1028 30.36 857 25.31 10.4 50.7 74 5.9 42.6 0
03:16 1028 30.36 857 25.31 10.2 50.4 74 5.8 42.4 0
03:17 1028 30.36 857 25.31 10 50 75 5.8 42.4 0
03:18 1028 30.36 857 25.31 9.8 49.6 76 5.8 42.5 0
03:19 1028 30.36 857 25.31 9.6 49.3 77 5.8 42.4 0
03:20 1028 30.36 857 25.31 9.4 49 78 5.8 42.4 0
03:21 1028 30.36 857 25.31 9.3 48.8 78 5.7 42.2 0
03:22 1028 30.36 857 25.31 9.4 48.9 77 5.6 42.2 0
03:23 1028 30.36 857 25.31 9.3 48.8 77 5.6 42 0
03:24 1028 30.36 857 25.31 9.2 48.5 78 5.5 42 0
03:25 1028 30.36 857 25.31 9 48.2 79 5.5 41.9 0
03:26 1028 30.36 857 25.31 8.9 48 79 5.5 41.9 0
03:27 1028 30.36 857 25.31 8.7 47.7 80 5.4 41.8 0
03:28 1028 30.36 857 25.31 8.6 47.5 80 5.4 41.8 0
03:29 1028 30.36 857 25.31 8.5 47.3 81 5.5 41.9 0
03:30 1028 30.36 857 25.31 8.5 47.3 81 5.5 41.9 0
03:31 1028 30.36 857 25.31 8.5 47.2 82 5.5 41.9 0
03:32 1028 30.36 858 25.34 8.4 47.2 82 5.5 41.9 0
03:33 1028 30.36 857 25.31 8.5 47.2 82 5.5 41.9 0
03:34 1028 30.36 858 25.34 8.6 47.4 81 5.4 41.8 0
03:35 1028 30.36 858 25.34 8.7 47.6 80 5.5 41.9 0
03:36 1028 30.36 858 25.34 8.8 47.9 79 5.4 41.8 0
03:37 1028 30.36 858 25.34 8.8 47.8 80 5.5 42 0
03:38 1028 30.36 858 25.34 8.7 47.7 80 5.6 42 0
03:39 1028 30.36 858 25.34 8.8 47.8 80 5.5 41.8 0
03:40 1028 30.36 858 25.34 8.9 47.9 79 5.4 41.8 0
03:41 1028 30.36 858 25.34 9 48.2 78 5.4 41.8 0
03:42 1028 30.36 858 25.34 9.1 48.4 77 5.3 41.6 0
03:43 1028 30.36 858 25.34 9.4 48.9 75 5.3 41.6 0
03:44 1028 30.36 858 25.34 9.5 49 76 5.4 41.7 0
03:45 1028 30.36 858 25.34 9.2 48.6 77 5.5 41.9 0
03:46 1028 30.36 858 25.34 9 48.2 79 5.6 42 0
03:47 1028 30.36 858 25.34 8.8 47.8 81 5.7 42.2 0
03:48 1028 30.36 858 25.34 8.5 47.3 82 5.6 42.1 0
03:49 1028 30.36 858 25.34 8.4 47.1 82 5.6 42.1 0
03:50 1028 30.36 858 25.34 8.3 46.9 83 5.5 42 0
03:51 1028 30.36 858 25.34 8.2 46.8 83 5.5 41.9 0
03:52 1028 30.36 858 25.34 8.3 46.9 82 5.4 41.8 0
03:53 1028 30.36 858 25.34 8.6 47.4 81 5.5 41.8 0
03:54 1028 30.36 858 25.34 8.8 47.9 79 5.5 41.9 0
03:55 1028 30.36 858 25.34 9 48.2 79 5.5 41.9 0
03:56 1028 30.36 858 25.34 9.1 48.4 78 5.5 41.9 0
03:57 1028 30.36 858 25.34 9.2 48.6 77 5.5 41.8 0
03:58 1028 30.36 858 25.34 9.4 48.8 77 5.5 41.9 0
03:59 1028 30.36 858 25.34 9.3 48.8 77 5.5 42 0
04:00 1028 30.36 858 25.34 9.3 48.8 77 5.6 42.1 0
04:01 1028 30.36 857 25.31 9.3 48.7 78 5.6 42 0
04:02 1028 30.36 857 25.31 9.2 48.6 78 5.5 41.9 0
04:03 1028 30.36 857 25.31 9.2 48.5 78 5.5 41.8 0
04:04 1028 30.36 857 25.31 9 48.3 78 5.5 41.8 0
04:05 1028 30.36 857 25.31 8.9 48 79 5.4 41.8 0
04:06 1028 30.36 858 25.34 8.8 47.8 80 5.5 41.8 0
04:07 1028 30.36 857 25.31 8.7 47.6 80 5.5 41.9 0
04:08 1028 30.36 857 25.31 8.6 47.5 80 5.4 41.8 0
04:09 1028 30.36 857 25.31 8.6 47.4 81 5.5 41.8 0
04:10 1028 30.36 857 25.31 8.5 47.3 81 5.5 41.8 0
04:11 1028 30.36 857 25.31 8.4 47.1 81 5.4 41.7 0
04:12 1028 30.36 857 25.31 8.3 47 82 5.4 41.7 0
04:13 1028 30.36 857 25.31 8.3 46.9 82 5.4 41.7 0
04:14 1028 30.36 857 25.31 8.3 46.9 82 5.3 41.6 0
04:15 1028 30.36 857 25.31 8.2 46.8 82 5.3 41.6 0
04:16 1028 30.36 857 25.31 8.2 46.8 82 5.4 41.7 0
04:17 1028 30.36 858 25.34 8.3 47 82 5.4 41.7 0
04:18 1028 30.36 858 25.34 8.4 47.2 81 5.4 41.7 0
04:19 1028 30.36 858 25.34 8.5 47.3 81 5.4 41.8 0
04:20 1028 30.36 857 25.31 8.6 47.6 81 5.5 41.9 0
04:21 1028 30.36 858 25.34 8.8 47.8 80 5.5 41.9 0
04:22 1028 30.36 858 25.34 8.9 48 79 5.5 41.9 0
04:23 1028 30.36 858 25.34 9.1 48.4 78 5.5 42 0
04:24 1028 30.36 858 25.34 9.2 48.5 78 5.6 42 0
04:25 1028 30.36 858 25.34 9.3 48.7 78 5.5 42 0
04:26 1028 30.36 858 25.34 9.3 48.7 77 5.5 41.9 0
04:27 1028 30.36 858 25.34 9.2 48.6 77 5.5 41.9 0
04:28 1028 30.36 858 25.34 9.2 48.5 78 5.5 41.9 0
04:29 1028 30.36 858 25.34 9.2 48.5 78 5.5 41.9 0
04:30 1028 30.36 858 25.34 9.1 48.3 78 5.5 41.9 0
04:31 1028 30.36 858 25.34 9 48.1 79 5.5 41.9 0
04:32 1028 30.36 858 25.34 8.8 47.9 78 5.3 41.5 0
04:33 1028 30.36 858 25.34 8.6 47.5 80 5.4 41.7 0
04:34 1028 30.36 858 25.34 8.5 47.3 80 5.2 41.4 0
04:35 1028 30.36 858 25.34 8.2 46.8 81 5.2 41.4 0
04:36 1028 30.36 857 25.31 8 46.3 82 5.1 41.2 0
04:37 1028 30.36 857 25.31 7.9 46.1 82 5 40.9 0
04:38 1028 30.36 858 25.34 7.8 46 82 4.9 40.8 0
04:39 1028 30.36 857 25.31 7.6 45.7 83 4.8 40.7 0
04:40 1028 30.36 858 25.34 7.5 45.4 83 4.8 40.7 0
04:41 1028 30.36 858 25.34 7.4 45.3 84 4.9 40.8 0
04:42 1028 30.36 858 25.34 7.3 45.1 84 4.7 40.5 0
04:43 1028 30.36 858 25.34 7.1 44.7 85 4.7 40.4 0
04:44 1028 30.36 858 25.34 6.9 44.4 86 4.8 40.6 0
04:45 1028 30.36 858 25.34 6.9 44.3 87 4.8 40.7 0
04:46 1028 30.36 858 25.34 6.9 44.4 87 4.9 40.8 0
04:47 1028 30.36 858 25.34 6.9 44.4 87 5 41 0
04:48 1028 30.36 858 25.34 7 44.6 87 5 41.1 0
04:49 1028 30.36 857 25.31 7.2 44.9 87 5.1 41.2 0
04:50 1028 30.36 857 25.31 7.4 45.3 86 5.3 41.5 0
04:51 1028 30.36 857 25.31 7.7 45.9 84 5.2 41.3 0
04:52 1028 30.36 857 25.31 8.1 46.5 82 5.2 41.4 0
04:53 1028 30.36 857 25.31 8.2 46.8 81 5.2 41.4 0
04:54 1028 30.36 857 25.31 8.4 47.2 80 5.2 41.3 0
04:55 1028 30.36 857 25.31 8.5 47.3 79 5.1 41.2 0
04:56 1028 30.36 857 25.31 8.5 47.3 79 5.1 41.2 0
04:57 1028 30.36 857 25.31 8.6 47.4 79 5.1 41.1 0
04:58 1028 30.36 857 25.31 8.4 47.2 79 4.9 40.9 0
04:59 1028 30.36 857 25.31 8.1 46.5 81 5 41.1 0
05:00 1028 30.36 857 25.31 7.7 45.9 83 5 41 0
05:01 1028 30.36 857 25.31 7.5 45.5 84 5 41.1 0
05:02 1028 30.36 857 25.31 7.5 45.5 85 5.1 41.1 0
05:03 1028 30.36 857 25.31 7.6 45.8 84 5.1 41.2 0
05:04 1028 30.36 857 25.31 7.9 46.2 82 4.9 40.9 0
05:05 1028 30.36 857 25.31 7.9 46.3 82 5 40.9 0
05:06 1028 30.36 857 25.31 7.9 46.1 82 4.9 40.9 0
05:07 1028 30.36 857 25.31 7.7 45.9 83 5 41 0
05:08 1028 30.36 857 25.31 7.6 45.7 83 5 40.9 0
05:09 1028 30.36 857 25.31 7.5 45.5 84 5 40.9 0
05:10 1028 30.36 857 25.31 7.5 45.4 84 5 41 0
05:11 1028 30.36 857 25.31 7.4 45.4 84 4.9 40.9 0
05:12 1028 30.36 857 25.31 7.3 45.2 85 4.9 40.8 0
05:13 1028 30.36 857 25.31 7.2 44.9 85 4.8 40.7 0
05:14 1028 30.36 857 25.31 7 44.6 86 4.8 40.7 0
05:15 1028 30.36 857 25.31 6.9 44.4 87 5 41 0
05:16 1028 30.36 857 25.31 7 44.5 87 4.9 40.8 0
05:17 1028 30.36 857 25.31 7 44.5 87 4.9 40.9 0
05:18 1028 30.36 857 25.31 6.9 44.4 87 4.9 40.9 0
05:19 1028 30.36 857 25.31 6.9 44.4 87 4.8 40.7 0
05:20 1028 30.36 857 25.31 6.8 44.2 88 4.9 40.8 0
05:21 1028 30.36 857 25.31 6.7 44.1 88 4.9 40.8 0
05:22 1028 30.36 857 25.31 6.6 43.9 89 4.9 40.8 0
05:23 1028 30.36 857 25.31 6.5 43.7 90 4.9 40.8 0
05:24 1028 30.36 857 25.31 6.4 43.5 90 4.9 40.8 0
05:25 1028 30.36 857 25.31 6.4 43.4 91 5 41 0
05:26 1028 30.36 858 25.34 6.4 43.5 90 5 40.9 0
05:27 1028 30.36 858 25.34 6.4 43.6 91 5 41 0
05:28 1028 30.36 858 25.34 6.5 43.7 91 5.1 41.1 0
05:29 1028 30.36 858 25.34 6.6 43.8 91 5.2 41.4 0
05:30 1028 30.36 858 25.34 6.7 44.1 90 5.3 41.5 0
05:31 1028 30.36 858 25.34 6.9 44.4 90 5.3 41.5 0
05:32 1028 30.36 858 25.34 7 44.5 89 5.3 41.5 0
05:33 1028 30.36 858 25.34 7.1 44.7 89 5.4 41.7 0
05:34 1028 30.36 858 25.34 7.2 44.9 89 5.4 41.7 0
05:35 1028 30.36 858 25.34 7.3 45.1 88 5.4 41.6 0
05:36 1028 30.36 858 25.34 7.4 45.4 87 5.4 41.7 0
05:37 1028 30.36 858 25.34 7.4 45.3 87 5.4 41.6 0
05:38 1028 30.36 858 25.34 7.4 45.2 87 5.3 41.6 0
05:39 1028 30.36 858 25.34 7.3 45.2 87 5.4 41.7 0
05:40 1028 30.36 858 25.34 7.3 45.1 87 5.3 41.5 0
05:41 1028 30.36 858 25.34 7.4 45.3 87 5.3 41.6 0
05:42 1028 30.36 858 25.34 7.4 45.4 86 5.3 41.6 0
05:43 1028 30.36 858 25.34 7.4 45.4 86 5.3 41.6 0
05:44 1028 30.36 858 25.34 7.4 45.2 87 5.3 41.5 0
05:45 1028 30.36 858 25.34 7.3 45.1 87 5.2 41.4 0
05:46 1028 30.36 858 25.34 7.4 45.2 86 5.2 41.4 0
05:47 1028 30.36 858 25.34 7.4 45.4 86 5.2 41.4 0
05:48 1028 30.36 858 25.34 7.5 45.5 85 5.2 41.3 0
05:49 1028 30.36 858 25.34 7.5 45.5 85 5.1 41.3 0
05:50 1028 30.36 858 25.34 7.6 45.6 85 5.2 41.3 0
05:51 1028 30.36 858 25.34 7.5 45.6 85 5.2 41.3 0
05:52 1028 30.36 858 25.34 7.6 45.7 84 5.1 41.3 0
05:53 1028 30.36 858 25.34 7.8 46 83 5.1 41.2 0
05:54 1028 30.36 858 25.34 7.9 46.2 83 5.1 41.2 0
05:55 1028 30.36 858 25.34 8.1 46.5 82 5.1 41.2 0
05:56 1028 30.36 858 25.34 8.2 46.7 81 5.1 41.2 0
05:57 1028 30.36 858 25.34 8.1 46.6 82 5.2 41.3 0
05:58 1028 30.36 858 25.34 8 46.3 82 5.1 41.2 0
05:59 1028 30.36 858 25.34 7.8 46 83 5.1 41.2 0
06:00 1028 30.36 858 25.34 7.6 45.7 84 5.1 41.1 0
06:01 1028 30.36 858 25.34 7.4 45.3 85 5.1 41.1 0
06:02 1028 30.36 858 25.34 7.4 45.3 86 5.1 41.2 0
06:03 1028 30.36 858 25.34 7.4 45.2 85 5.1 41.2 0
06:04 1028 30.36 858 25.34 7.4 45.2 86 5.1 41.2 0
06:05 1028 30.36 858 25.34 7.3 45.1 86 5.1 41.1 0
06:06 1028 30.36 858 25.34 7.2 45 86 5 41.1 0
06:07 1028 30.36 858 25.34 7 44.7 87 5 41 0
06:08 1028 30.36 858 25.34 7 44.5 88 5.1 41.2 0
06:09 1028 30.36 858 25.34 7 44.5 88 5.1 41.1 0
06:10 1029 30.39 858 25.34 7.1 44.7 87 5.1 41.1 0
06:11 1028 30.36 858 25.34 7.2 45 86 5.1 41.2 0
06:12 1028 30.36 858 25.34 7.3 45.2 86 5.1 41.2 0
06:13 1028 30.36 858 25.34 7.4 45.4 86 5.2 41.3 0
06:14 1029 30.39 858 25.34 7.5 45.5 85 5.2 41.3 0
06:15 1029 30.39 858 25.34 7.5 45.4 85 5.1 41.3 0
06:16 1029 30.39 858 25.34 7.4 45.4 85 5.1 41.2 0
06:17 1029 30.39 858 25.34 7.4 45.3 86 5.2 41.3 0
06:18 1029 30.39 858 25.34 7.4 45.2 86 5.1 41.2 0
06:19 1029 30.39 858 25.34 7.2 45 86 5.1 41.2 0
06:20 1028 30.36 858 25.34 7.1 44.9 87 5.1 41.2 0
06:21 1029 30.39 858 25.34 7 44.6 87 5 41.1 0
06:22 1029 30.39 858 25.34 6.9 44.5 88 5 41.1 0
06:23 1029 30.39 858 25.34 6.9 44.4 88 5 41 0
06:24 1029 30.39 858 25.34 6.8 44.2 88 5 41 0
06:25 1029 30.39 858 25.34 6.7 44.1 89 5 41 0
06:26 1029 30.39 858 25.34 6.7 44.1 89 5 41 0
06:27 1029 30.39 858 25.34 6.7 44.1 89 5 40.9 0
06:28 1029 30.39 858 25.34 6.7 44 88 4.9 40.8 0
06:29 1029 30.39 858 25.34 6.6 43.9 89 4.9 40.8 0
06:30 1029 30.39 858 25.34 6.6 43.9 89 4.9 40.8 0
06:31 1029 30.39 858 25.34 6.6 44 89 5 40.9 0
06:32 1029 30.39 858 25.34 6.7 44 88 4.9 40.8 0
06:33 1029 30.39 858 25.34 6.7 44.1 88 4.9 40.8 0
06:34 1029 30.39 858 25.34 6.7 44 88 4.9 40.8 0
06:35 1029 30.39 858 25.34 6.8 44.2 88 4.9 40.8 0
06:36 1029 30.39 858 25.34 6.8 44.2 87 4.8 40.6 0
06:37 1029 30.39 858 25.34 6.8 44.2 87 4.8 40.6 0
06:38 1029 30.39 858 25.34 6.7 44.1 87 4.7 40.4 0
06:39 1029 30.39 858 25.34 6.6 43.9 87 4.7 40.4 0
06:40 1029 30.39 858 25.34 6.7 44 87 4.7 40.4 0
06:41 1029 30.39 858 25.34 6.7 44.1 87 4.7 40.5 0
06:42 1029 30.39 858 25.34 6.7 44 87 4.7 40.4 0
06:43 1029 30.39 858 25.34 6.7 44.1 87 4.7 40.4 0
06:44 1029 30.39 858 25.34 6.7 44.1 87 4.6 40.4 0
06:45 1029 30.39 858 25.34 6.7 44.1 86 4.6 40.3 0
06:46 1029 30.39 858 25.34 6.7 44 86 4.6 40.2 0
06:47 1029 30.39 858 25.34 6.6 43.9 87 4.6 40.3 0
06:48 1029 30.39 858 25.34 6.6 43.8 87 4.6 40.3 0
06:49 1029 30.39 858 25.34 6.6 43.9 87 4.7 40.4 0
06:50 1029 30.39 858 25.34 6.7 44 87 4.7 40.5 0
06:51 1029 30.39 858 25.34 6.7 44.1 87 4.7 40.4 0
06:52 1029 30.39 858 25.34 6.8 44.2 87 4.7 40.5 0
06:53 1029 30.39 858 25.34 6.9 44.5 86 4.8 40.6 0
06:54 1029 30.39 858 25.34 7.1 44.8 86 4.9 40.8 0
06:55 1029 30.39 858 25.34 7.2 44.9 86 5 40.9 0
06:56 1029 30.39 858 25.34 7.2 45 85 5 40.9 0
06:57 1029 30.39 858 25.34 7.4 45.3 85 5 41.1 0
06:58 1029 30.39 858 25.34 7.5 45.5 85 5.1 41.1 0
06:59 1029 30.39 858 25.34 7.5 45.5 85 5.1 41.2 0
07:00 1029 30.39 858 25.34 7.6 45.6 84 5.1 41.1 0
07:01 1029 30.39 858 25.34 7.6 45.6 84 5.1 41.1 0
07:02 1029 30.39 858 25.34 7.6 45.6 84 5.1 41.2 0
07:03 1029 30.39 858 25.34 7.5 45.6 85 5.2 41.3 0
07:04 1029 30.39 858 25.34 7.5 45.5 85 5.2 41.3 0
07:05 1029 30.39 858 25.34 7.5 45.5 85 5.2 41.3 0
07:06 1029 30.39 858 25.34 7.5 45.5 85 5.2 41.4 0
07:07 1029 30.39 858 25.34 7.5 45.5 85 5.2 41.4 0
07:08 1029 30.39 858 25.34 7.5 45.6 85 5.3 41.5 0
07:09 1029 30.39 858 25.34 7.6 45.7 85 5.3 41.5 0
07:10 1029 30.39 858 25.34 7.7 45.8 85 5.3 41.6 0
07:11 1029 30.39 858 25.34 7.8 46 85 5.4 41.7 0
07:12 1029 30.39 858 25.34 7.8 46.1 85 5.4 41.7 0
07:13 1029 30.39 858 25.34 7.9 46.3 85 5.5 41.9 0
07:14 1029 30.39 858 25.34 8 46.4 84 5.5 41.9 0
07:15 1029 30.39 858 25.34 8.1 46.5 84 5.5 41.9 0
07:16 1029 30.39 858 25.34 8.1 46.6 84 5.6 42 0
07:17 1029 30.39 858 25.34 8.1 46.7 84 5.6 42.1 0
07:18 1029 30.39 858 25.34 8.2 46.7 84 5.7 42.2 0
07:19 1029 30.39 858 25.34 8.3 46.9 84 5.7 42.3 0
07:20 1029 30.39 858 25.34 8.3 47 84 5.8 42.4 0
07:21 1029 30.39 858 25.34 8.5 47.2 84 5.9 42.5 0
07:22 1029 30.39 858 25.34 8.5 47.3 84 5.9 42.7 0
07:23 1029 30.39 858 25.34 8.5 47.4 83 5.9 42.6 0
07:24 1029 30.39 858 25.34 8.6 47.6 83 5.9 42.6 0
07:25 1029 30.39 858 25.34 8.8 47.8 83 6 42.8 0
07:26 1029 30.39 858 25.34 8.8 47.9 83 6.1 43 0
07:27 1029 30.39 858 25.34 8.9 48 83 6.1 43 0
07:28 1029 30.39 858 25.34 9 48.1 83 6.2 43.2 0
07:29 1029 30.39 858 25.34 9.1 48.3 84 6.4 43.6 0
07:30 1029 30.39 858 25.34 9.1 48.4 82 6.2 43.2 0
07:31 1029 30.39 858 25.34 9.2 48.6 80 6 42.8 0
07:32 1029 30.39 858 25.34 9.4 48.9 80 6.2 43.1 0
07:33 1029 30.39 858 25.34 9.5 49 81 6.3 43.4 0
07:34 1029 30.39 858 25.34 9.5 49.1 79 6.1 43.1 0
07:35 1029 30.39 858 25.34 9.6 49.3 79 6.2 43.2 0
07:36 1029 30.39 858 25.34 9.7 49.5 79 6.3 43.3 0
07:37 1029 30.39 858 25.34 9.8 49.6 79 6.4 43.5 0
07:38 1029 30.39 858 25.34 9.9 49.7 79 6.3 43.4 0
07:39 1029 30.39 858 25.34 9.9 49.8 78 6.2 43.2 0
07:40 1029 30.39 858 25.34 10.1 50.1 79 6.5 43.8 0
07:41 1029 30.39 858 25.34 10.1 50.2 77 6.3 43.3 0
07:42 1029 30.39 858 25.34 10.2 50.4 77 6.5 43.6 0
07:43 1029 30.39 858 25.34 10.3 50.5 77 6.4 43.5 0
07:44 1029 30.39 858 25.34 10.4 50.7 78 6.7 44 0
07:45 1029 30.39 858 25.34 10.5 50.8 77 6.6 44 0
07:46 1029 30.39 858 25.34 10.6 51 77 6.8 44.2 0
07:47 1029 30.39 858 25.34 10.6 51.1 77 6.8 44.3 0
07:48 1029 30.39 858 25.34 10.7 51.2 77 6.8 44.2 0
07:49 1029 30.39 858 25.34 10.8 51.4 76 6.8 44.2 0
07:50 1029 30.39 858 25.34 10.9 51.5 77 7 44.7 0
07:51 1029 30.39 858 25.34 10.9 51.6 77 7 44.5 0
07:52 1029 30.39 858 25.34 11 51.8 76 7 44.7 0
07:53 1029 30.39 858 25.34 11 51.9 74 6.7 44 0
07:54 1029 30.39 858 25.34 11.1 51.9 76 7 44.6 0
07:55 1029 30.39 858 25.34 11.1 52.1 79 7.6 45.7 0
07:56 1029 30.39 858 25.34 11.2 52.2 78 7.7 45.8 0
07:57 1029 30.39 858 25.34 11.3 52.4 75 7 44.6 0
07:58 1029 30.39 858 25.34 11.4 52.4 76 7.3 45.2 0
07:59 1029 30.39 858 25.34 11.4 52.6 76 7.3 45.1 0
08:00 1029 30.39 858 25.34 11.5 52.6 77 7.7 45.8 0
08:01 1029 30.39 858 25.34 11.5 52.7 77 7.6 45.7 0
08:02 1029 30.39 858 25.34 11.6 52.9 77 7.7 45.9 0
08:03 1029 30.39 858 25.34 11.9 53.3 71 6.8 44.2 0
08:04 1029 30.39 858 25.34 12.1 53.7 70 6.9 44.4 0
08:05 1029 30.39 858 25.34 12.2 54 69 6.8 44.2 0
08:06 1029 30.39 858 25.34 12.3 54.1 69 6.8 44.3 0
08:07 1029 30.39 858 25.34 12.3 54.2 68 6.6 43.8 0
08:08 1029 30.39 858 25.34 12.4 54.3 68 6.7 44 0
08:09 1029 30.39 858 25.34 12.4 54.3 69 6.8 44.3 0
08:10 1029 30.39 858 25.34 12.4 54.4 68 6.8 44.3 0
08:11 1029 30.39 858 25.34 12.5 54.5 68 6.9 44.4 0
08:12 1029 30.39 858 25.34 12.5 54.5 66 6.4 43.5 0
08:13 1029 30.39 858 25.34 12.6 54.6 69 7 44.7 0
08:14 1029 30.39 858 25.34 12.7 54.8 70 7.4 45.4 0
08:15 1029 30.39 858 25.34 12.8 55 67 6.9 44.4 0
08:16 1029 30.39 858 25.34 12.8 55 68 7.1 44.7 0
08:17 1029 30.39 858 25.34 12.8 55.1 65 6.6 43.8 0
08:18 1029 30.39 858 25.34 12.9 55.2 67 6.9 44.4 0
08:19 1029 30.39 858 25.34 13 55.3 67 7.1 44.7 0
08:20 1029 30.39 858 25.34 13 55.5 67 7.2 45 0
08:21 1029 30.39 858 25.34 13.1 55.6 66 7 44.7 0
08:22 1029 30.39 858 25.34 13.2 55.8 69 7.7 45.8 0
08:23 1029 30.39 858 25.34 13.3 56 66 7.1 44.9 0
08:24 1029 30.39 858 25.34 13.3 56 67 7.4 45.3 0
08:25 1029 30.39 858 25.34 13.5 56.2 66 7.2 45 0
08:26 1029 30.39 858 25.34 13.5 56.3 66 7.4 45.4 0
08:27 1029 30.39 858 25.34 13.7 56.6 65 7.3 45.2 0
08:28 1029 30.39 858 25.34 13.8 56.8 68 8 46.5 0
08:29 1029 30.39 858 25.34 13.8 56.8 68 8.1 46.6 0
08:30 1029 30.39 858 25.34 13.7 56.6 72 8.7 47.6 0
08:31 1029 30.39 858 25.34 13.7 56.6 68 8 46.4 0
08:32 1029 30.39 858 25.34 13.7 56.6 66 7.6 45.7 0
08:33 1029 30.39 858 25.34 13.7 56.7 64 7.1 44.8 0
08:34 1029 30.39 858 25.34 13.8 56.8 71 8.7 47.6 0
08:35 1029 30.39 858 25.34 13.9 57 66 7.7 45.9 0
08:36 1029 30.39 858 25.34 14 57.2 66 7.8 46 0
08:37 1029 30.39 858 25.34 14.1 57.3 69 8.5 47.3 0
08:38 1029 30.39 858 25.34 14.2 57.5 62 7 44.5 0
08:39 1029 30.39 858 25.34 14.3 57.7 66 8 46.4 0
08:40 1029 30.39 858 25.34 14.3 57.8 72 9.3 48.8 0
08:41 1029 30.39 858 25.34 14.3 57.8 66 8.1 46.5 0
08:42 1029 30.39 858 25.34 14.4 57.9 67 8.3 46.9 0
08:43 1029 30.39 858 25.34 14.4 57.9 64 7.8 46.1 0
08:44 1029 30.39 858 25.34 14.4 57.9 66 8.3 46.9 0
08:45 1029 30.39 858 25.34 14.5 58 69 8.8 47.8 0
08:46 1029 30.39 858 25.34 14.5 58.1 64 7.9 46.1 0
08:47 1029 30.39 858 25.34 14.4 58 61 7.2 44.9 0
08:48 1029 30.39 858 25.34 14.4 58 63 7.6 45.6 0
08:49 1029 30.39 858 25.34 14.5 58 62 7.3 45.1 0
08:50 1029 30.39 858 25.34 14.5 58.1 67 8.4 47.2 0
08:51 1029 30.39 858 25.34 14.7 58.4 63 7.8 46 0
08:52 1029 30.39 858 25.34 14.8 58.6 63 7.9 46.3 0
08:53 1029 30.39 858 25.34 14.8 58.6 61 7.4 45.3 0
08:54 1029 30.39 858 25.34 14.7 58.4 65 8.1 46.6 0
08:55 1029 30.39 858 25.34 14.7 58.4 63 7.7 45.9 0
08:56 1029 30.39 858 25.34 14.7 58.5 61 7.3 45.2 0
08:57 1029 30.39 858 25.34 14.7 58.5 63 7.8 46 0
08:58 1029 30.39 858 25.34 14.7 58.5 63 7.8 46 0
08:59 1029 30.39 858 25.34 14.7 58.5 63 7.9 46.3 0
09:00 1029 30.39 858 25.34 14.7 58.5 63 7.7 45.9 0
09:01 1029 30.39 858 25.34 14.7 58.5 62 7.5 45.5 0
09:02 1029 30.39 858 25.34 14.7 58.5 63 8 46.3 0
09:03 1029 30.39 858 25.34 14.7 58.5 64 8 46.4 0
09:04 1029 30.39 858 25.34 14.8 58.6 66 8.6 47.4 0
09:05 1029 30.39 858 25.34 15 58.9 68 9.1 48.4 0
09:06 1029 30.39 858 25.34 15.2 59.3 62 8.1 46.6 0
09:07 1029 30.39 858 25.34 15.2 59.4 62 8 46.5 0
09:08 1029 30.39 858 25.34 15.2 59.4 62 8.1 46.6 0
09:09 1029 30.39 858 25.34 15.3 59.5 55 6.4 43.6 0
09:10 1029 30.39 858 25.34 15.3 59.6 58 7.1 44.7 0
09:11 1029 30.39 858 25.34 15.4 59.8 60 7.9 46.1 0
09:12 1029 30.39 858 25.34 15.5 59.9 59 7.7 45.8 0
09:13 1029 30.39 858 25.34 15.5 60 61 8.1 46.6 0
09:14 1029 30.39 858 25.34 15.5 59.9 55 6.5 43.6 0
09:15 1029 30.39 858 25.34 15.5 59.8 55 6.5 43.7 0
09:16 1029 30.39 858 25.34 15.4 59.7 56 6.8 44.3 0
09:17 1029 30.39 858 25.34 15.4 59.7 58 7.2 44.9 0
09:18 1029 30.39 858 25.34 15.4 59.6 55 6.3 43.4 0
09:19 1029 30.39 858 25.34 15.3 59.6 58 7.1 44.7 0
09:20 1029 30.39 858 25.34 15.4 59.7 56 6.8 44.3 0
09:21 1029 30.39 858 25.34 15.5 59.9 52 5.7 42.3 0
09:22 1029 30.39 858 25.34 15.5 59.9 60 7.7 45.9 0
09:23 1029 30.39 858 25.34 15.6 60.1 53 6.2 43.2 0
09:24 1029 30.39 858 25.34 15.8 60.5 58 7.7 45.8 0
09:25 1029 30.39 858 25.34 16 60.9 54 6.9 44.5 0
09:26 1029 30.39 858 25.34 16.3 61.3 57 7.8 46 0
09:27 1029 30.39 858 25.34 16.3 61.4 52 6.5 43.7 0
09:28 1029 30.39 858 25.34 16.2 61.1 51 6.2 43.1 0
09:29 1029 30.39 858 25.34 16 60.8 52 6.1 43 0
09:30 1029 30.39 858 25.34 15.8 60.4 54 6.6 43.8 0
09:31 1029 30.39 858 25.34 15.7 60.2 52 5.9 42.6 0
09:32 1029 30.39 858 25.34 15.6 60 52 5.8 42.4 0
09:33 1029 30.39 858 25.34 15.8 60.4 61 8.4 47.1 0
09:34 1029 30.39 858 25.34 16 60.9 53 6.4 43.6 0
09:35 1029 30.39 858 25.34 16.3 61.3 52 6.4 43.5 0
09:36 1029 30.39 858 25.34 16.4 61.5 49 5.8 42.5 0
09:37 1029 30.39 858 25.34 16.5 61.7 55 7.6 45.7 0
09:38 1029 30.39 858 25.34 16.7 62 50 6.2 43.1 0
09:39 1029 30.39 858 25.34 16.7 62 49 6.1 43 0
09:40 1029 30.39 858 25.34 16.6 62 51 6.6 43.9 0
09:41 1029 30.39 858 25.34 16.7 62.1 49 5.9 42.7 0
09:42 1029 30.39 858 25.34 16.7 62.1 53 7.1 44.9 0
09:43 1029 30.39 858 25.34 16.7 62.1 49 6 42.8 0
09:44 1029 30.39 858 25.34 16.7 62 54 7.5 45.4 0
09:45 1029 30.39 858 25.34 16.7 62 53 7.1 44.8 0
09:46 1029 30.39 858 25.34 16.7 62.1 56 8 46.5 0
09:47 1029 30.39 858 25.34 16.8 62.3 49 6.3 43.3 0
09:48 1029 30.39 858 25.34 16.9 62.4 53 7.4 45.4 0
09:49 1029 30.39 858 25.34 16.9 62.4 50 6.6 43.9 0
09:50 1029 30.39 858 25.34 16.9 62.4 48 5.9 42.7 0
09:51 1029 30.39 858 25.34 16.9 62.3 48 5.8 42.5 0
09:52 1029 30.39 858 25.34 16.9 62.3 49 6.2 43.2 0
09:53 1029 30.39 858 25.34 16.9 62.3 46 5.2 41.4 0
09:54 1029 30.39 858 25.34 16.8 62.3 52 6.9 44.5 0
09:55 1029 30.39 858 25.34 16.8 62.3 52 6.9 44.4 0
09:56 1029 30.39 858 25.34 16.9 62.4 54 7.7 45.9 0
09:57 1029 30.39 858 25.34 16.9 62.4 49 6.4 43.4 0
09:58 1029 30.39 858 25.34 16.9 62.4 54 7.6 45.7 0
09:59 1029 30.39 858 25.34 17 62.6 49 6.3 43.4 0
10:00 1029 30.39 858 25.34 17.1 62.7 55 8 46.5 0
10:01 1029 30.39 858 25.34 17.1 62.8 53 7.6 45.8 0
10:02 1029 30.39 858 25.34 17.1 62.7 51 6.8 44.3 0
10:03 1029 30.39 858 25.34 17.1 62.8 49 6.4 43.5 0
10:04 1029 30.39 858 25.34 17.1 62.8 45 5.1 41.2 0
10:05 1029 30.39 858 25.34 17.1 62.9 51 7 44.6 0
10:06 1029 30.39 858 25.34 17.1 62.8 53 7.6 45.7 0
10:07 1029 30.39 858 25.34 17.2 62.9 54 8 46.3 0
10:08 1029 30.39 858 25.34 17.2 62.9 56 8.3 47 0
10:09 1029 30.39 858 25.34 17.2 62.9 53 7.7 45.8 0
10:10 1029 30.39 858 25.34 17.3 63.1 51 7.1 44.8 0
10:11 1029 30.39 858 25.34 17.3 63.1 52 7.4 45.3 0
10:12 1029 30.39 858 25.34 17.2 62.9 48 6.3 43.4 0
10:13 1029 30.39 858 25.34 17.2 62.9 50 6.9 44.4 0
10:14 1029 30.39 858 25.34 17.2 62.9 45 5.3 41.5 0
10:15 1029 30.39 858 25.34 17.2 62.9 48 6.1 43 0
10:16 1029 30.39 858 25.34 17.2 63 49 6.7 44 0
10:17 1029 30.39 858 25.34 17.2 62.9 51 6.9 44.5 0
10:18 1029 30.39 858 25.34 17 62.5 49 6.4 43.5 0
10:19 1029 30.39 858 25.34 16.7 62 49 6 42.7 0
10:20 1029 30.39 858 25.34 16.6 61.9 54 7.4 45.3 0
10:21 1029 30.39 858 25.34 16.8 62.2 58 8.6 47.5 0
10:22 1029 30.39 858 25.34 17.1 62.8 47 5.9 42.6 0
10:23 1029 30.39 858 25.34 17.3 63.1 49 6.7 44 0
10:24 1029 30.39 858 25.34 17.4 63.3 50 6.8 44.3 0
10:25 1029 30.39 858 25.34 17.3 63.2 47 6 42.8 0
10:26 1029 30.39 858 25.34 17.2 62.9 46 5.5 41.9 0
10:27 1029 30.39 858 25.34 17.1 62.7 49 6.5 43.7 0
10:28 1029 30.39 858 25.34 17 62.7 51 7 44.6 0
10:29 1029 30.39 858 25.34 17.1 62.7 50 6.6 43.9 0
10:30 1029 30.39 858 25.34 17.2 62.9 55 8.2 46.8 0
10:31 1029 30.39 858 25.34 17.2 62.9 48 6.1 43 0
10:32 1029 30.39 858 25.34 17.1 62.8 56 8.3 47 0
10:33 1029 30.39 858 25.34 17.2 63 55 8.2 46.8 0
10:34 1029 30.39 858 25.34 17.1 62.8 53 7.5 45.4 0
10:35 1029 30.39 858 25.34 16.9 62.4 48 5.8 42.5 0
10:36 1029 30.39 858 25.34 16.7 62 52 6.9 44.4 0
10:37 1029 30.39 858 25.34 16.5 61.6 49 5.9 42.7 0
10:38 1029 30.39 858 25.34 16.2 61.2 50 6 42.9 0
10:39 1029 30.39 858 25.34 16.1 60.9 54 6.8 44.2 0
10:40 1029 30.39 858 25.34 16 60.7 50 5.8 42.4 0
10:41 1029 30.39 858 25.34 16 60.8 53 6.5 43.8 0
10:42 1029 30.39 858 25.34 16.2 61.1 55 7.3 45.2 0
10:43 1029 30.39 858 25.34 16.5 61.7 54 7.1 44.8 0
10:44 1029 30.39 858 25.34 16.7 62.1 52 7 44.6 0
10:45 1029 30.39 858 25.34 16.7 62.1 49 6.2 43.1 0
10:46 1029 30.39 858 25.34 16.6 61.9 54 7.4 45.3 0
10:47 1029 30.39 858 25.34 16.6 61.9 47 5.3 41.5 0
10:48 1029 30.39 858 25.34 16.8 62.2 57 8.2 46.8 0
10:49 1029 30.39 858 25.34 17 62.7 47 5.7 42.2 0
10:50 1029 30.39 858 25.34 17.2 62.9 49 6.6 43.8 0
10:51 1029 30.39 858 25.34 17.2 62.9 56 8.4 47 0
10:52 1029 30.39 858 25.34 17.2 63 50 6.9 44.4 0
10:53 1029 30.39 858 25.34 17.3 63.1 46 5.7 42.3 0
10:54 1029 30.39 858 25.34 17.3 63.1 50 6.9 44.5 0
10:55 1029 30.39 858 25.34 17.3 63.1 49 6.7 44 0
10:56 1029 30.39 858 25.34 17.2 62.9 46 5.7 42.2 0
10:57 1029 30.39 858 25.34 17 62.6 49 6.3 43.3 0
10:58 1029 30.39 858 25.34 17.1 62.7 47 5.8 42.5 0
10:59 1029 30.39 858 25.34 17.1 62.8 46 5.6 42.1 0
11:00 1029 30.39 858 25.34 17.2 62.9 50 6.7 44.1 0
11:01 1029 30.39 858 25.34 17.1 62.8 49 6.5 43.7 0
11:02 1029 30.39 858 25.34 17.2 63 49 6.5 43.7 0
11:03 1029 30.39 858 25.34 17.3 63.2 54 8.2 46.7 0
11:04 1029 30.39 858 25.34 17.5 63.4 49 6.6 43.9 0
11:05 1029 30.39 858 25.34 17.5 63.5 50 7.1 44.7 0
11:06 1029 30.39 858 25.34 17.5 63.5 47 6.3 43.4 0
11:07 1029 30.39 858 25.34 17.5 63.5 52 7.7 45.8 0
11:08 1029 30.39 858 25.34 17.6 63.7 48 6.5 43.7 0
11:09 1029 30.39 858 25.34 17.6 63.7 47 6.4 43.6 0
11:10 1029 30.39 858 25.34 17.6 63.6 49 6.9 44.3 0
11:11 1029 30.39 858 25.34 17.6 63.6 52 7.7 45.9 0
11:12 1029 30.39 858 25.34 17.7 63.9 51 7.6 45.7 0
11:13 1029 30.39 858 25.34 17.9 64.1 49 7.2 45 0
11:14 1029 30.39 858 25.34 17.9 64.1 49 7 44.6 0
11:15 1029 30.39 858 25.34 17.9 64.2 50 7.4 45.4 0
11:16 1029 30.39 858 25.34 17.9 64.3 47 6.5 43.7 0
11:17 1029 30.39 858 25.34 17.8 64 46 6.1 43 0
11:18 1029 30.39 858 25.34 17.6 63.8 46 5.8 42.5 0
11:19 1029 30.39 858 25.34 17.6 63.6 51 7.5 45.6 0
11:20 1029 30.39 858 25.34 17.6 63.6 44 5.4 41.8 0
11:21 1029 30.39 858 25.34 17.5 63.5 44 5.4 41.7 0
11:22 1029 30.39 858 25.34 17.3 63.1 47 6.1 43 0
11:23 1029 30.39 858 25.34 17.1 62.9 47 5.9 42.7 0
11:24 1029 30.39 858 25.34 17.2 63 44 5.1 41.2 0
11:25 1029 30.39 858 25.34 17.2 63 45 5.2 41.3 0
11:26 1029 30.39 858 25.34 17.3 63.1 46 5.5 41.9 0
11:27 1029 30.39 858 25.34 17.4 63.3 48 6.5 43.8 0
11:28 1029 30.39 858 25.34 17.6 63.6 48 6.5 43.8 0
11:29 1029 30.39 858 25.34 17.7 63.9 50 7.2 45 0
11:30 1029 30.39 858 25.34 17.8 64.1 46 6.3 43.3 0
11:31 1029 30.39 858 25.34 18 64.3 48 7 44.6 0
11:32 1029 30.39 858 25.34 17.9 64.3 47 6.4 43.6 0
11:33 1029 30.39 858 25.34 17.9 64.2 51 7.6 45.8 0
11:34 1029 30.39 858 25.34 18 64.3 46 6.3 43.4 0
11:35 1029 30.39 858 25.34 17.9 64.2 43 5.3 41.6 0
11:36 1029 30.39 858 25.34 17.9 64.2 46 6.3 43.4 0
11:37 1029 30.39 858 25.34 18 64.3 45 5.9 42.6 0
11:38 1029 30.39 858 25.34 17.9 64.3 44 5.6 42.1 0
11:39 1029 30.39 858 25.34 17.9 64.2 50 7.5 45.5 0
11:40 1029 30.39 858 25.34 17.9 64.2 52 8 46.4 0
11:41 1029 30.39 858 25.34 18 64.4 46 6.2 43.2 0
11:42 1029 30.39 858 25.34 17.8 64 43 5.2 41.4 0
11:43 1029 30.39 858 25.34 17.7 63.8 45 5.6 42.1 0
11:44 1029 30.39 858 25.34 17.7 63.8 43 5 41 0
11:45 1029 30.39 858 25.34 17.8 64 42 4.9 40.8 0
11:46 1029 30.39 858 25.34 17.9 64.3 47 6.7 44.1 0
11:47 1029 30.39 858 25.34 18.2 64.8 45 6.2 43.1 0
11:48 1029 30.39 858 25.34 18.3 64.9 43 5.7 42.2 0
11:49 1029 30.39 858 25.34 18.3 65 40 4.6 40.2 0
11:50 1029 30.39 858 25.34 18.2 64.8 50 7.7 45.9 0
11:51 1029 30.39 858 25.34 18.3 64.9 45 6.3 43.4 0
11:52 1029 30.39 858 25.34 18.3 64.9 43 5.6 42.1 0
11:53 1029 30.39 858 25.34 18.3 64.9 41 4.9 40.8 0
11:54 1029 30.39 858 25.34 18.3 64.9 45 6.2 43.2 0
11:55 1029 30.39 858 25.34 18.3 65 43 5.8 42.4 0
11:56 1029 30.39 858 25.34 18.4 65.1 45 6.4 43.5 0
11:57 1029 30.39 858 25.34 18.5 65.3 42 5.6 42.1 0
11:58 1029 30.39 858 25.34 18.5 65.4 44 6.1 42.9 0
11:59 1029 30.39 858 25.34 18.4 65.2 48 7.3 45.1 0
12:00 1029 30.39 858 25.34 18.3 64.9 44 6 42.8 0
12:01 1029 30.39 858 25.34 18 64.4 45 5.9 42.6 0
12:02 1029 30.39 858 25.34 17.7 63.9 47 6.4 43.4 0
12:03 1029 30.39 858 25.34 17.4 63.3 50 6.9 44.4 0
12:04 1029 30.39 858 25.34 17.2 63 43 4.8 40.7 0
12:05 1029 30.39 858 25.34 17.2 63 44 5.1 41.2 0
12:06 1029 30.39 858 25.34 17.4 63.2 44 5 41 0
12:07 1029 30.39 858 25.34 17.6 63.6 47 6.2 43.2 0
12:08 1029 30.39 858 25.34 17.8 64.1 42 4.7 40.5 0
12:09 1029 30.39 858 25.34 18 64.4 50 7.7 45.8 0
12:10 1029 30.39 858 25.34 18.3 65 43 5.5 41.9 0
12:11 1029 30.39 858 25.34 18.4 65.1 45 6.4 43.5 0
12:12 1029 30.39 858 25.34 18.4 65.2 45 6.4 43.6 0
12:13 1029 30.39 858 25.34 18.6 65.5 45 6.5 43.7 0
12:14 1029 30.39 858 25.34 18.7 65.7 38 4.2 39.6 0
12:15 1029 30.39 858 25.34 18.6 65.5 42 5.7 42.3 0
12:16 1029 30.39 858 25.34 18.7 65.6 41 5.4 41.7 0
12:17 1029 30.39 858 25.34 18.6 65.5 44 6.2 43.2 0
12:18 1029 30.39 858 25.34 18.6 65.5 44 6.4 43.5 0
12:19 1029 30.39 858 25.34 18.7 65.6 47 7.2 44.9 0
12:20 1029 30.39 858 25.34 18.7 65.7 44 6.3 43.4 0
12:21 1029 30.39 858 25.34 18.8 65.9 42 5.7 42.3 0
12:22 1029 30.39 858 25.34 18.7 65.6 41 5.2 41.4 0
12:23 1029 30.39 858 25.34 18.8 65.8 41 5.4 41.7 0
12:24 1029 30.39 858 25.34 18.7 65.7 44 6.4 43.5 0
12:25 1029 30.39 858 25.34 18.6 65.5 43 5.9 42.7 0
12:26 1029 30.39 858 25.34 18.4 65.2 44 6 42.8 0
12:27 1029 30.39 858 25.34 18.4 65.1 46 6.7 44.1 0
12:28 1029 30.39 858 25.34 18.5 65.3 41 5 41.1 0
12:29 1029 30.39 858 25.34 18.5 65.3 46 6.9 44.4 0
12:30 1029 30.39 858 25.34 18.5 65.3 47 7 44.5 0
12:31 1029 30.39 858 25.34 18.6 65.5 43 5.8 42.4 0
12:32 1029 30.39 858 25.34 18.6 65.4 40 4.9 40.9 0
12:33 1029 30.39 858 25.34 18.5 65.4 44 6.1 43 0
12:34 1029 30.39 858 25.34 18.6 65.4 39 4.4 39.9 0
12:35 1029 30.39 858 25.34 18.7 65.6 40 5 41 0
12:36 1029 30.39 858 25.34 18.7 65.7 40 5 41.1 0
12:37 1029 30.39 858 25.34 18.7 65.6 39 4.7 40.4 0
12:38 1029 30.39 858 25.34 18.7 65.7 39 4.7 40.4 0
12:39 1029 30.39 858 25.34 18.6 65.5 41 5.3 41.6 0
12:40 1029 30.39 858 25.34 18.6 65.4 41 5.3 41.5 0
12:41 1029 30.39 858 25.34 18.6 65.4 43 5.8 42.4 0
12:42 1029 30.39 858 25.34 18.6 65.5 43 6 42.9 0
12:43 1029 30.39 858 25.34 18.7 65.6 42 5.6 42.1 0
12:44 1029 30.39 858 25.34 18.7 65.7 39 4.7 40.5 0
12:45 1029 30.39 858 25.34 18.7 65.7 40 5.1 41.1 0
12:46 1029 30.39 858 25.34 18.8 65.8 39 4.7 40.5 0
12:47 1029 30.39 858 25.34 18.9 66 40 5.1 41.1 0
12:48 1029 30.39 858 25.34 18.9 66 40 5.2 41.4 0
12:49 1029 30.39 858 25.34 18.8 65.8 38 4.3 39.7 0
12:50 1029 30.39 858 25.34 18.8 65.8 38 4.5 40 0
12:51 1029 30.39 858 25.34 18.7 65.7 36 3.6 38.5 0
12:52 1029 30.39 858 25.34 18.7 65.7 44 6.4 43.6 0
12:53 1029 30.39 858 25.34 18.9 66 44 6.5 43.7 0
12:54 1029 30.39 858 25.34 19 66.1 39 4.9 40.8 0
12:55 1029 30.39 858 25.34 18.9 66 44 6.4 43.5 0
12:56 1029 30.39 858 25.34 18.8 65.8 46 7 44.6 0
12:57 1029 30.39 858 25.34 18.8 65.9 40 5.1 41.2 0
12:58 1029 30.39 858 25.34 18.9 66 43 6.1 43 0
12:59 1029 30.39 858 25.34 18.9 66.1 45 7 44.7 0
13:00 1029 30.39 858 25.34 19.1 66.3 41 5.6 42 0
13:01 1029 30.39 858 25.34 19.2 66.6 39 5.3 41.5 0
13:02 1029 30.39 858 25.34 19.2 66.6 37 4.5 40.1 0
13:03 1029 30.39 858 25.34 19.1 66.5 37 4.1 39.4 0
13:04 1029 30.39 858 25.34 19 66.2 43 6.3 43.3 0
13:05 1029 30.39 858 25.34 19.1 66.5 41 5.7 42.3 0
13:06 1029 30.39 858 25.34 19.3 66.7 43 6.6 44 0
13:07 1029 30.39 858 25.34 19.2 66.5 42 6.1 43 0
13:08 1029 30.39 858 25.34 19.1 66.4 42 6.1 43 0
13:09 1029 30.39 858 25.34 19 66.3 39 5 40.9 0
13:10 1029 30.39 858 25.34 18.9 66.1 41 5.6 42.1 0
13:11 1029 30.39 858 25.34 18.9 66 38 4.5 40.2 0
13:12 1029 30.39 858 25.34 18.8 65.9 38 4.5 40 0
13:13 1029 30.39 858 25.34 18.8 65.8 38 4.5 40.1 0
13:14 1029 30.39 858 25.34 18.8 65.8 37 4 39.2 0
13:15 1029 30.39 858 25.34 18.7 65.7 37 3.7 38.7 0
13:16 1029 30.39 858 25.34 18.8 65.8 41 5.5 41.8 0
13:17 1029 30.39 858 25.34 18.8 65.8 39 4.8 40.7 0
13:18 1029 30.39 858 25.34 18.7 65.7 40 5 40.9 0
13:19 1029 30.39 858 25.34 18.7 65.6 43 6.1 43 0
13:20 1029 30.39 858 25.34 18.7 65.7 45 6.8 44.3 0
13:21 1029 30.39 858 25.34 18.8 65.8 42 5.8 42.5 0
13:22 1029 30.39 858 25.34 18.8 65.8 47 7.3 45.1 0
13:23 1029 30.39 858 25.34 18.8 65.8 53 9 48.3 0
13:24 1029 30.39 858 25.34 18.9 66 43 6.1 42.9 0
13:25 1029 30.39 858 25.34 19 66.2 43 6.2 43.2 0
13:26 1029 30.39 858 25.34 19.2 66.5 39 5 41 0
13:27 1029 30.39 858 25.34 19.1 66.4 41 5.8 42.5 0
13:28 1029 30.39 858 25.34 19 66.2 40 5.3 41.6 0
13:29 1029 30.39 858 25.34 19 66.2 43 6.2 43.2 0
13:30 1029 30.39 858 25.34 19 66.2 44 6.6 44 0
13:31 1029 30.39 858 25.34 19.2 66.6 41 5.8 42.4 0
13:32 1029 30.39 858 25.34 19.3 66.8 40 5.5 41.9 0
13:33 1029 30.39 858 25.34 19.3 66.7 44 6.8 44.3 0
13:34 1029 30.39 858 25.34 19.2 66.6 41 5.8 42.4 0
13:35 1029 30.39 858 25.34 19.2 66.6 44 6.7 44 0
13:36 1029 30.39 858 25.34 19.3 66.7 40 5.6 42.1 0
13:37 1029 30.39 858 25.34 19.2 66.5 43 6.5 43.6 0
13:38 1029 30.39 858 25.34 19.2 66.5 43 6.3 43.4 0
13:39 1029 30.39 858 25.34 19.3 66.7 46 7.4 45.3 0
13:40 1029 30.39 858 25.34 19.4 67 43 6.8 44.2 0
13:41 1029 30.39 858 25.34 19.5 67 43 6.8 44.2 0
13:42 1029 30.39 858 25.34 19.4 67 41 6.1 43 0
13:43 1029 30.39 858 25.34 19.3 66.7 44 6.9 44.5 0
13:44 1029 30.39 858 25.34 19.2 66.5 48 8 46.4 0
13:45 1029 30.39 858 25.34 19.2 66.5 48 8 46.4 0
13:46 1029 30.39 858 25.34 19.4 66.9 45 7.2 45 0
13:47 1029 30.39 858 25.34 19.4 67 41 6 42.9 0
13:48 1029 30.39 858 25.34 19.5 67 43 6.8 44.3 0
13:49 1029 30.39 858 25.34 19.4 67 42 6.4 43.5 0
13:50 1029 30.39 858 25.34 19.6 67.3 37 4.9 40.8 0
13:51 1029 30.39 858 25.34 19.6 67.2 41 6 42.8 0
13:52 1028 30.36 858 25.34 19.5 67 45 7.3 45.1 0
13:53 1028 30.36 858 25.34 19.4 66.8 44 7 44.6 0
13:54 1029 30.39 858 25.34 19.4 67 40 5.8 42.4 0
13:55 1029 30.39 858 25.34 19.4 66.8 37 4.3 39.7 0
13:56 1028 30.36 858 25.34 19.2 66.5 38 4.6 40.2 0
13:57 1029 30.39 858 25.34 19.1 66.3 37 4.3 39.8 0
13:58 1028 30.36 858 25.34 19 66.2 45 7 44.7 0
13:59 1028 30.36 858 25.34 19.1 66.3 38 4.5 40.1 0
14:00 1029 30.39 858 25.34 19.1 66.3 47 7.7 45.8 0
14:01 1028 30.36 858 25.34 19.1 66.3 36 3.8 38.8 0
14:02 1028 30.36 858 25.34 19.1 66.3 42 5.9 42.5 0
14:03 1028 30.36 858 25.34 19.1 66.4 39 5 41 0
14:04 1028 30.36 858 25.34 19.2 66.5 37 4.3 39.7 0
14:05 1028 30.36 858 25.34 19.2 66.5 35 3.5 38.3 0
14:06 1028 30.36 858 25.34 19.2 66.5 41 5.7 42.3 0
14:07 1028 30.36 858 25.34 19.3 66.7 41 5.9 42.6 0
14:08 1028 30.36 858 25.34 19.4 66.8 45 7.3 45.1 0
14:09 1028 30.36 858 25.34 19.4 67 40 5.6 42.1 0
14:10 1028 30.36 858 25.34 19.5 67.1 39 5.5 41.9 0
14:11 1028 30.36 858 25.34 19.6 67.2 44 7.1 44.9 0
14:12 1028 30.36 858 25.34 19.7 67.4 38 5.3 41.5 0
14:13 1028 30.36 858 25.34 19.6 67.2 42 6.4 43.4 0
14:14 1028 30.36 858 25.34 19.6 67.3 41 6 42.8 0
14:15 1028 30.36 858 25.34 19.7 67.5 43 7.1 44.7 0
14:16 1028 30.36 858 25.34 19.9 67.7 47 8.3 47 0
14:17 1028 30.36 858 25.34 20 67.9 45 7.7 45.8 0
14:18 1028 30.36 858 25.34 20.1 68.1 36 4.8 40.7 0
14:19 1028 30.36 858 25.34 20 68 39 5.7 42.2 0
14:20 1028 30.36 857 25.31 19.8 67.7 42 6.6 43.9 0
14:21 1028 30.36 857 25.31 19.9 67.8 39 5.7 42.3 0
14:22 1028 30.36 858 25.34 19.9 67.8 47 8.2 46.8 0
14:23 1028 30.36 858 25.34 20 68 40 6.2 43.2 0
14:24 1028 30.36 857 25.31 20.1 68.2 40 6.2 43.1 0
14:25 1028 30.36 857 25.31 20 68 43 7.1 44.8 0
14:26 1028 30.36 857 25.31 19.9 67.8 40 6.1 43.1 0
14:27 1028 30.36 857 25.31 19.8 67.6 38 5.1 41.2 0
14:28 1028 30.36 857 25.31 19.8 67.6 41 6.3 43.4 0
14:29 1028 30.36 857 25.31 19.9 67.8 37 5 40.9 0
14:30 1028 30.36 857 25.31 19.9 67.8 35 4.3 39.7 0
14:31 1028 30.36 857 25.31 19.8 67.7 34 3.6 38.5 0
14:32 1028 30.36 857 25.31 19.8 67.6 37 4.9 40.8 0
14:33 1028 30.36 857 25.31 19.8 67.7 43 7 44.7 0
14:34 1028 30.36 857 25.31 19.9 67.9 40 6 42.8 0
14:35 1028 30.36 857 25.31 19.9 67.8 38 5.5 41.9 0
14:36 1028 30.36 857 25.31 19.8 67.7 36 4.7 40.4 0
14:37 1028 30.36 857 25.31 19.9 67.7 40 6 42.8 0
14:38 1028 30.36 857 25.31 19.9 67.8 40 5.9 42.5 0
14:39 1028 30.36 857 25.31 20 68 38 5.5 41.9 0
14:40 1028 30.36 857 25.31 20.1 68.2 41 6.7 44 0
14:41 1028 30.36 857 25.31 20.2 68.4 37 5.2 41.4 0
14:42 1028 30.36 857 25.31 20.2 68.4 36 4.9 40.8 0
14:43 1028 30.36 857 25.31 20.2 68.4 35 4.3 39.8 0
14:44 1028 30.36 857 25.31 20.3 68.5 42 7 44.5 0
14:45 1028 30.36 857 25.31 20.4 68.7 37 5.3 41.6 0
14:46 1028 30.36 857 25.31 20.3 68.5 38 5.5 42 0
14:47 1028 30.36 857 25.31 20.1 68.3 42 7 44.7 0
14:48 1028 30.36 857 25.31 20.2 68.3 38 5.5 42 0
14:49 1028 30.36 857 25.31 20.1 68.3 35 4.4 40 0
14:50 1028 30.36 857 25.31 20.2 68.3 37 5.2 41.3 0
14:51 1028 30.36 857 25.31 20.1 68.2 39 5.9 42.5 0
14:52 1028 30.36 857 25.31 20.1 68.1 35 4.2 39.6 0
14:53 1028 30.36 857 25.31 20 68.1 37 5.2 41.4 0
14:54 1028 30.36 857 25.31 20 68.1 33 3.5 38.4 0
14:55 1028 30.36 857 25.31 20.2 68.3 35 4.4 39.9 0
14:56 1028 30.36 857 25.31 20.2 68.3 37 5.1 41.2 0
14:57 1028 30.36 857 25.31 20.2 68.3 34 4 39.2 0
14:58 1028 30.36 857 25.31 20.2 68.4 42 7 44.6 0
14:59 1028 30.36 857 25.31 20.4 68.6 36 4.8 40.7 0
15:00 1028 30.36 857 25.31 20.4 68.7 36 4.8 40.6 0
15:01 1028 30.36 857 25.31 20.4 68.7 37 5.2 41.3 0
15:02 1028 30.36 857 25.31 20.3 68.5 36 5 41 0
15:03 1028 30.36 857 25.31 20.3 68.5 37 5.4 41.7 0
15:04 1028 30.36 857 25.31 20.4 68.7 38 5.9 42.7 0
15:05 1028 30.36 857 25.31 20.4 68.7 36 5 41.1 0
15:06 1028 30.36 857 25.31 20.3 68.6 36 5.1 41.1 0
15:07 1028 30.36 857 25.31 20.3 68.6 35 4.5 40.1 0
15:08 1028 30.36 857 25.31 20.3 68.6 36 4.8 40.7 0
15:09 1028 30.36 857 25.31 20.3 68.6 41 6.9 44.5 0
15:10 1028 30.36 857 25.31 20.4 68.7 33 3.8 38.8 0
15:11 1028 30.36 857 25.31 20.4 68.8 38 5.9 42.6 0
15:12 1028 30.36 857 25.31 20.6 69 35 4.9 40.7 0
15:13 1028 30.36 857 25.31 20.5 68.8 38 5.9 42.5 0
15:14 1028 30.36 857 25.31 20.3 68.6 36 4.7 40.5 0
15:15 1028 30.36 857 25.31 20.3 68.6 37 5.2 41.4 0
15:16 1028 30.36 857 25.31 20.5 68.8 35 4.4 40 0
15:17 1028 30.36 857 25.31 20.5 68.8 34 4.2 39.5 0
15:18 1028 30.36 857 25.31 20.4 68.8 41 6.9 44.4 0
15:19 1028 30.36 857 25.31 20.4 68.7 33 3.9 39 0
15:20 1028 30.36 857 25.31 20.3 68.5 38 5.7 42.2 0
15:21 1028 30.36 857 25.31 20.4 68.7 39 6.1 42.9 0
15:22 1028 30.36 857 25.31 20.4 68.8 36 5 41 0
15:23 1028 30.36 857 25.31 20.5 68.8 38 5.7 42.3 0
15:24 1028 30.36 857 25.31 20.4 68.8 37 5.4 41.8 0
15:25 1028 30.36 857 25.31 20.4 68.7 36 5 41.1 0
15:26 1028 30.36 857 25.31 20.3 68.6 33 3.9 39 0
15:27 1028 30.36 857 25.31 20.4 68.7 43 7.7 45.8 0
15:28 1028 30.36 857 25.31 20.6 69.1 36 5.3 41.5 0
15:29 1028 30.36 857 25.31 20.8 69.4 33 4.2 39.5 0
15:30 1028 30.36 857 25.31 20.8 69.4 38 6.1 43 0
15:31 1028 30.36 857 25.31 20.6 69.1 36 5.2 41.3 0
15:32 1028 30.36 857 25.31 20.5 68.8 38 5.7 42.3 0
15:33 1028 30.36 857 25.31 20.4 68.7 37 5.5 41.8 0
15:34 1028 30.36 857 25.31 20.4 68.8 40 6.5 43.6 0
15:35 1028 30.36 857 25.31 20.5 68.9 37 5.6 42.1 0
15:36 1028 30.36 857 25.31 20.6 69 39 6.2 43.1 0
15:37 1028 30.36 857 25.31 20.6 69.1 37 5.6 42.1 0
15:38 1028 30.36 857 25.31 20.7 69.3 32 3.5 38.2 0
15:39 1028 30.36 857 25.31 20.8 69.4 37 5.8 42.4 0
15:40 1028 30.36 857 25.31 20.7 69.3 39 6.4 43.5 0
15:41 1028 30.36 857 25.31 20.8 69.4 35 4.9 40.7 0
15:42 1028 30.36 857 25.31 20.8 69.4 36 5.4 41.7 0
15:43 1028 30.36 857 25.31 20.8 69.4 39 6.3 43.4 0
15:44 1028 30.36 857 25.31 20.9 69.6 37 5.9 42.7 0
15:45 1028 30.36 857 25.31 21.1 70 33 4.2 39.6 0
15:46 1028 30.36 857 25.31 21.2 70.1 39 7 44.6 0
15:47 1028 30.36 857 25.31 21.3 70.3 37 6 42.9 0
15:48 1028 30.36 857 25.31 21.3 70.3 40 7.3 45.1 0
15:49 1028 30.36 857 25.31 21.2 70.2 36 5.9 42.5 0
15:50 1028 30.36 857 25.31 21.1 70.1 38 6.3 43.3 0
15:51 1028 30.36 857 25.31 21 69.8 39 6.7 44 0
15:52 1028 30.36 857 25.31 20.9 69.6 32 3.7 38.6 0
15:53 1028 30.36 857 25.31 20.8 69.4 36 5.3 41.6 0
15:54 1028 30.36 857 25.31 20.9 69.7 36 5.5 41.9 0
15:55 1028 30.36 857 25.31 21 69.8 34 4.9 40.8 0
15:56 1028 30.36 857 25.31 20.9 69.6 38 6.1 42.9 0
15:57 1028 30.36 857 25.31 20.9 69.6 33 4 39.2 0
15:58 1028 30.36 857 25.31 20.8 69.5 34 4.5 40.1 0
15:59 1028 30.36 857 25.31 20.8 69.4 38 6 42.8 0
16:00 1028 30.36 857 25.31 20.7 69.3 36 5.2 41.3 0
16:01 1028 30.36 857 25.31 20.7 69.2 31 3.2 37.8 0
16:02 1028 30.36 857 25.31 20.7 69.2 39 6.5 43.7 0
16:03 1028 30.36 857 25.31 20.7 69.2 38 5.9 42.5 0
16:04 1028 30.36 857 25.31 20.8 69.5 38 6.2 43.2 0
16:05 1028 30.36 857 25.31 20.8 69.5 34 4.6 40.3 0
16:06 1027 30.33 857 25.31 20.7 69.3 33 4.1 39.5 0
16:07 1027 30.33 857 25.31 20.7 69.3 37 5.6 42 0
16:08 1028 30.36 857 25.31 20.8 69.4 35 5 41.1 0
16:09 1027 30.33 857 25.31 20.9 69.6 35 5.1 41.3 0
16:10 1027 30.33 857 25.31 20.9 69.5 34 4.7 40.5 0
16:11 1027 30.33 857 25.31 20.8 69.5 35 4.9 40.8 0
16:12 1027 30.33 857 25.31 20.8 69.5 37 5.8 42.4 0
16:13 1027 30.33 857 25.31 20.8 69.5 35 5 40.9 0
16:14 1028 30.36 857 25.31 20.8 69.4 38 6.1 43 0
16:15 1028 30.36 857 25.31 20.8 69.5 36 5.4 41.7 0
16:16 1028 30.36 857 25.31 20.9 69.5 32 3.9 39 0
16:17 1027 30.33 857 25.31 20.8 69.5 35 4.8 40.7 0
16:18 1027 30.33 857 25.31 20.8 69.4 37 5.9 42.7 0
16:19 1027 30.33 857 25.31 20.9 69.5 34 4.6 40.3 0
16:20 1027 30.33 857 25.31 20.8 69.4 32 3.7 38.6 0
16:21 1027 30.33 857 25.31 20.8 69.4 37 5.6 42 0
16:22 1027 30.33 857 25.31 20.8 69.5 38 6.1 43 0
16:23 1027 30.33 857 25.31 20.8 69.5 37 5.7 42.2 0
16:24 1027 30.33 857 25.31 20.8 69.4 35 4.8 40.6 0
16:25 1027 30.33 857 25.31 20.7 69.3 37 5.7 42.3 0
16:26 1027 30.33 857 25.31 20.8 69.5 37 5.8 42.5 0
16:27 1027 30.33 857 25.31 20.8 69.4 36 5.3 41.5 0
16:28 1027 30.33 857 25.31 20.9 69.5 34 4.7 40.5 0
16:29 1027 30.33 857 25.31 20.8 69.5 36 5.5 41.9 0
16:30 1027 30.33 857 25.31 20.8 69.4 35 4.9 40.7 0
16:31 1027 30.33 857 25.31 20.7 69.3 35 4.9 40.8 0
16:32 1027 30.33 857 25.31 20.7 69.2 36 5.3 41.6 0
16:33 1027 30.33 857 25.31 20.6 69.1 33 4 39.2 0
16:34 1027 30.33 857 25.31 20.6 69 34 4.3 39.7 0
16:35 1027 30.33 857 25.31 20.6 69.1 37 5.6 42 0
16:36 1027 30.33 857 25.31 20.7 69.3 38 6.1 43 0
16:37 1027 30.33 857 25.31 20.7 69.3 42 7.4 45.3 0
16:38 1027 30.33 857 25.31 20.8 69.5 37 5.7 42.3 0
16:39 1027 30.33 857 25.31 20.9 69.7 37 6 42.8 0
16:40 1027 30.33 857 25.31 21.1 69.9 37 5.8 42.5 0
16:41 1027 30.33 857 25.31 21 69.8 31 3.4 38.2 0
16:42 1027 30.33 857 25.31 20.9 69.6 33 4.4 39.9 0
16:43 1027 30.33 857 25.31 20.8 69.4 36 5.2 41.3 0
16:44 1027 30.33 857 25.31 20.8 69.4 39 6.3 43.3 0
16:45 1027 30.33 857 25.31 20.8 69.4 37 5.9 42.6 0
16:46 1027 30.33 857 25.31 20.8 69.4 36 5.2 41.4 0
16:47 1027 30.33 857 25.31 20.8 69.5 37 5.7 42.3 0
16:48 1027 30.33 857 25.31 21 69.7 35 5.1 41.1 0
16:49 1027 30.33 857 25.31 21.1 69.9 35 5.3 41.6 0
16:50 1027 30.33 857 25.31 21.1 70 33 4.5 40 0
16:51 1027 30.33 857 25.31 20.9 69.7 33 4.4 39.8 0
16:52 1027 30.33 857 25.31 20.8 69.4 32 3.6 38.5 0
16:53 1027 30.33 857 25.31 20.7 69.2 34 4.5 40.1 0
16:54 1027 30.33 857 25.31 20.6 69.1 37 5.6 42 0
16:55 1027 30.33 857 25.31 20.6 69.1 37 5.6 42.1 0
16:56 1027 30.33 857 25.31 20.5 69 36 5 41.1 0
16:57 1027 30.33 857 25.31 20.5 69 35 4.5 40.2 0
16:58 1027 30.33 857 25.31 20.5 68.9 37 5.6 42.1 0
16:59 1027 30.33 857 25.31 20.6 69.1 40 6.7 44.1 0
17:00 1027 30.33 857 25.31 20.8 69.4 33 4.2 39.6 0
17:01 1027 30.33 857 25.31 20.7 69.3 32 3.7 38.6 0
17:02 1027 30.33 857 25.31 20.6 69.1 39 6.5 43.7 0
17:03 1027 30.33 857 25.31 20.6 69.1 37 5.4 41.8 0
17:04 1027 30.33 857 25.31 20.7 69.3 34 4.3 39.8 0
17:05 1027 30.33 856 25.28 20.6 69.1 39 6.3 43.3 0
17:06 1027 30.33 857 25.31 20.6 69.1 40 6.5 43.8 0
17:07 1027 30.33 857 25.31 20.7 69.3 37 5.7 42.2 0
17:08 1027 30.33 857 25.31 20.8 69.4 36 5.1 41.3 0
17:09 1027 30.33 857 25.31 20.8 69.4 33 4.2 39.5 0
17:10 1027 30.33 857 25.31 20.7 69.3 32 3.8 38.8 0
17:11 1027 30.33 857 25.31 20.6 69.1 32 3.6 38.4 0
17:12 1027 30.33 857 25.31 20.5 68.9 34 4.3 39.7 0
17:13 1027 30.33 857 25.31 20.5 68.9 33 3.9 39 0
17:14 1027 30.33 856 25.28 20.5 68.8 35 4.6 40.3 0
17:15 1027 30.33 857 25.31 20.5 68.8 34 4.3 39.7 0
17:16 1027 30.33 856 25.28 20.5 68.9 38 6 42.7 0
17:17 1027 30.33 856 25.28 20.5 69 35 4.6 40.3 0
17:18 1027 30.33 856 25.28 20.6 69.1 37 5.7 42.2 0
17:19 1027 30.33 856 25.28 20.7 69.2 35 4.9 40.7 0
17:20 1027 30.33 856 25.28 20.8 69.4 33 3.9 39.1 0
17:21 1027 30.33 856 25.28 20.8 69.4 35 5 41 0
17:22 1027 30.33 857 25.31 20.8 69.5 33 4.3 39.7 0
17:23 1027 30.33 857 25.31 20.8 69.4 34 4.4 39.9 0
17:24 1027 30.33 857 25.31 20.7 69.3 37 5.8 42.5 0
17:25 1027 30.33 857 25.31 20.7 69.3 35 5 41.1 0
17:26 1027 30.33 857 25.31 20.7 69.3 34 4.6 40.3 0
17:27 1027 30.33 857 25.31 20.6 69.1 38 5.8 42.5 0
17:28 1027 30.33 857 25.31 20.6 69 34 4.2 39.6 0
17:29 1027 30.33 857 25.31 20.6 69.1 33 4.1 39.3 0
17:30 1027 30.33 857 25.31 20.6 69.1 33 3.7 38.7 0
17:31 1027 30.33 857 25.31 20.6 69.1 35 4.9 40.8 0
17:32 1027 30.33 857 25.31 20.6 69.2 33 4 39.3 0
17:33 1027 30.33 857 25.31 20.6 69 35 4.6 40.3 0
17:34 1027 30.33 857 25.31 20.6 69.1 35 4.6 40.3 0
17:35 1027 30.33 856 25.28 20.6 69 36 5.2 41.4 0
17:36 1027 30.33 856 25.28 20.6 69 37 5.4 41.7 0
17:37 1027 30.33 856 25.28 20.6 69 35 4.7 40.4 0
17:38 1027 30.33 857 25.31 20.6 69.1 33 4.1 39.4 0
17:39 1027 30.33 856 25.28 20.6 69 35 4.7 40.5 0
17:40 1027 30.33 856 25.28 20.5 69 33 4 39.1 0
17:41 1027 30.33 856 25.28 20.5 69 36 4.9 40.9 0
17:42 1027 30.33 856 25.28 20.5 68.9 35 4.7 40.5 0
17:43 1027 30.33 856 25.28 20.5 68.8 37 5.4 41.6 0
17:44 1027 30.33 856 25.28 20.4 68.8 34 4.3 39.8 0
17:45 1027 30.33 856 25.28 20.4 68.7 35 4.7 40.5 0
17:46 1027 30.33 856 25.28 20.4 68.7 37 5.3 41.6 0
17:47 1027 30.33 856 25.28 20.5 68.9 36 5.1 41.2 0
17:48 1027 30.33 856 25.28 20.5 68.8 35 4.6 40.3 0
17:49 1027 30.33 856 25.28 20.5 68.9 38 5.7 42.3 0
17:50 1027 30.33 857 25.31 20.6 69 35 4.9 40.8 0
17:51 1027 30.33 856 25.28 20.5 69 33 4 39.2 0
17:52 1027 30.33 856 25.28 20.5 68.8 36 5.1 41.2 0
17:53 1027 30.33 856 25.28 20.4 68.7 37 5.5 41.8 0
17:54 1027 30.33 856 25.28 20.3 68.6 36 4.8 40.6 0
17:55 1027 30.33 856 25.28 20.3 68.5 36 4.7 40.5 0
17:56 1027 30.33 856 25.28 20.3 68.5 36 5 41.1 0
17:57 1027 30.33 856 25.28 20.3 68.5 35 4.6 40.2 0
17:58 1027 30.33 856 25.28 20.4 68.6 32 3.4 38.2 0
17:59 1027 30.33 856 25.28 20.4 68.6 37 5.3 41.5 0
18:00 1027 30.33 856 25.28 20.4 68.7 37 5.3 41.6 0
18:01 1027 30.33 856 25.28 20.4 68.8 38 5.7 42.3 0
18:02 1027 30.33 856 25.28 20.5 68.9 36 5.1 41.1 0
18:03 1027 30.33 856 25.28 20.5 69 35 4.6 40.2 0
18:04 1027 30.33 856 25.28 20.6 69.1 38 5.9 42.6 0
18:05 1027 30.33 856 25.28 20.6 69.1 36 5.4 41.7 0
18:06 1027 30.33 856 25.28 20.6 69.1 36 5.1 41.2 0
18:07 1027 30.33 856 25.28 20.6 69.1 33 3.9 39.1 0
18:08 1027 30.33 856 25.28 20.5 68.9 36 4.9 40.8 0
18:09 1027 30.33 856 25.28 20.5 68.8 38 5.7 42.2 0
18:10 1027 30.33 856 25.28 20.5 68.9 36 4.9 40.8 0
18:11 1027 30.33 856 25.28 20.6 69 35 4.9 40.7 0
18:12 1027 30.33 856 25.28 20.6 69 36 5 40.9 0
18:13 1027 30.33 856 25.28 20.5 68.9 35 4.6 40.2 0
18:14 1027 30.33 856 25.28 20.5 68.8 35 4.7 40.5 0
18:15 1027 30.33 856 25.28 20.4 68.8 34 4.2 39.6 0
18:16 1027 30.33 856 25.28 20.4 68.7 35 4.5 40 0
18:17 1027 30.33 856 25.28 20.3 68.6 33 3.7 38.6 0
18:18 1027 30.33 856 25.28 20.3 68.5 35 4.4 39.9 0
18:19 1027 30.33 856 25.28 20.2 68.4 36 4.8 40.6 0
18:20 1027 30.33 856 25.28 20.2 68.4 34 3.9 38.9 0
18:21 1027 30.33 856 25.28 20.2 68.4 37 5.1 41.2 0
18:22 1027 30.33 856 25.28 20.1 68.3 37 5 40.9 0
18:23 1027 30.33 856 25.28 20.1 68.1 36 4.7 40.4 0
18:24 1027 30.33 856 25.28 20 68 37 4.9 40.9 0
18:25 1027 30.33 856 25.28 20.1 68.1 36 4.8 40.6 0
18:26 1027 30.33 856 25.28 20.1 68.1 37 5.2 41.3 0
18:27 1027 30.33 856 25.28 20 68.1 34 3.8 38.9 0
18:28 1027 30.33 856 25.28 20 68 34 3.7 38.6 0
18:29 1027 30.33 856 25.28 20 68 37 5 41 0
18:30 1027 30.33 856 25.28 20 67.9 36 4.7 40.5 0
18:31 1027 30.33 856 25.28 19.9 67.9 38 5.5 41.9 0
18:32 1027 30.33 856 25.28 19.9 67.9 34 3.8 38.8 0
18:33 1027 30.33 856 25.28 19.9 67.9 38 5.3 41.5 0
18:34 1027 30.33 856 25.28 19.9 67.8 38 5.4 41.7 0
18:35 1027 30.33 856 25.28 19.9 67.8 36 4.5 40.2 0
18:36 1027 30.33 856 25.28 19.9 67.9 37 4.8 40.7 0
18:37 1027 30.33 856 25.28 19.9 67.9 34 4 39.1 0
18:38 1027 30.33 856 25.28 19.9 67.9 37 5 41 0
18:39 1027 30.33 856 25.28 19.9 67.8 36 4.6 40.3 0
18:40 1027 30.33 856 25.28 19.9 67.8 35 4.3 39.7 0
18:41 1027 30.33 856 25.28 19.9 67.8 36 4.4 39.9 0
18:42 1027 30.33 856 25.28 19.9 67.8 35 4.2 39.6 0
18:43 1027 30.33 856 25.28 19.9 67.8 38 5.3 41.5 0
18:44 1027 30.33 856 25.28 19.9 67.8 37 4.8 40.6 0
18:45 1027 30.33 856 25.28 19.9 67.9 35 4.3 39.8 0
18:46 1027 30.33 856 25.28 19.8 67.7 36 4.5 40.1 0
18:47 1027 30.33 856 25.28 19.8 67.6 37 4.9 40.8 0
18:48 1027 30.33 856 25.28 19.7 67.5 36 4.4 39.9 0
18:49 1027 30.33 856 25.28 19.8 67.6 36 4.2 39.6 0
18:50 1027 30.33 856 25.28 19.7 67.5 36 4.3 39.8 0
18:51 1027 30.33 856 25.28 19.7 67.5 35 4.2 39.5 0
18:52 1027 30.33 856 25.28 19.7 67.4 37 4.6 40.3 0
18:53 1027 30.33 856 25.28 19.7 67.4 36 4.4 40 0
18:54 1027 30.33 856 25.28 19.7 67.4 36 4.5 40.1 0
18:55 1027 30.33 856 25.28 19.6 67.4 38 4.9 40.9 0
18:56 1027 30.33 856 25.28 19.6 67.3 36 4.2 39.6 0
18:57 1027 30.33 856 25.28 19.6 67.2 37 4.5 40.2 0
18:58 1027 30.33 856 25.28 19.6 67.2 36 4.2 39.6 0
18:59 1027 30.33 856 25.28 19.5 67.2 36 4.1 39.5 0
19:00 1027 30.33 856 25.28 19.5 67.1 35 3.8 38.9 0
19:01 1027 30.33 856 25.28 19.5 67.2 35 3.7 38.7 0
19:02 1027 30.33 856 25.28 19.6 67.2 36 4.3 39.7 0
19:03 1027 30.33 856 25.28 19.6 67.2 35 3.8 38.9 0
19:04 1027 30.33 856 25.28 19.5 67.2 35 3.9 39.1 0
19:05 1027 30.33 856 25.28 19.6 67.2 36 4.4 39.9 0
19:06 1027 30.33 856 25.28 19.5 67.2 37 4.5 40 0
19:07 1027 30.33 856 25.28 19.5 67.1 37 4.7 40.4 0
19:08 1027 30.33 856 25.28 19.5 67.1 36 4.3 39.7 0
19:09 1027 30.33 856 25.28 19.5 67 36 4.2 39.6 0
19:10 1027 30.33 856 25.28 19.5 67 36 4.2 39.6 0
19:11 1027 30.33 856 25.28 19.4 67 37 4.4 39.9 0
19:12 1027 30.33 856 25.28 19.4 66.9 37 4.7 40.4 0
19:13 1027 30.33 856 25.28 19.3 66.8 36 4.1 39.5 0
19:14 1027 30.33 856 25.28 19.3 66.7 37 4.6 40.2 0
19:15 1027 30.33 856 25.28 19.2 66.6 35 3.7 38.6 0
19:16 1027 30.33 856 25.28 19.3 66.7 37 4.4 39.9 0
19:17 1027 30.33 856 25.28 19.2 66.6 37 4.2 39.6 0
19:18 1027 30.33 856 25.28 19.2 66.5 37 4.3 39.7 0
19:19 1027 30.33 856 25.28 19.2 66.5 37 4.4 39.9 0
19:20 1027 30.33 856 25.28 19.1 66.4 38 4.4 40 0
19:21 1027 30.33 856 25.28 19.1 66.3 36 3.9 39 0
19:22 1027 30.33 856 25.28 19.1 66.3 37 4 39.3 0
19:23 1027 30.33 856 25.28 19.1 66.3 36 3.9 39.1 0
19:24 1027 30.33 856 25.28 19 66.3 37 4.3 39.7 0
19:25 1027 30.33 856 25.28 19 66.2 37 4.1 39.4 0
19:26 1027 30.33 856 25.28 18.9 66.1 36 3.8 38.8 0
19:27 1027 30.33 856 25.28 18.9 66 36 3.7 38.7 0
19:28 1027 30.33 856 25.28 18.9 66 38 4.3 39.8 0
19:29 1027 30.33 856 25.28 18.9 66 37 4.1 39.4 0
19:30 1027 30.33 856 25.28 18.9 65.9 37 3.9 38.9 0
19:31 1027 30.33 856 25.28 18.8 65.9 37 4.1 39.5 0
19:32 1027 30.33 856 25.28 18.7 65.7 37 3.9 39 0
19:33 1027 30.33 856 25.28 18.8 65.8 38 4.4 39.9 0
19:34 1027 30.33 856 25.28 18.7 65.7 39 4.6 40.2 0
19:35 1027 30.33 856 25.28 18.7 65.6 40 4.8 40.6 0
19:36 1027 30.33 856 25.28 18.6 65.5 38 4.3 39.7 0
19:37 1027 30.33 856 25.28 18.5 65.4 37 3.8 38.9 0
19:38 1027 30.33 856 25.28 18.5 65.4 38 3.9 39.1 0
19:39 1027 30.33 856 25.28 18.5 65.3 37 3.6 38.5 0
19:40 1027 30.33 856 25.28 18.6 65.4 38 4.3 39.7 0
19:41 1027 30.33 856 25.28 18.5 65.3 38 4.1 39.5 0
19:42 1027 30.33 856 25.28 18.4 65.1 37 3.8 38.8 0
19:43 1027 30.33 856 25.28 18.4 65.1 37 3.8 38.8 0
19:44 1027 30.33 856 25.28 18.4 65 39 4.1 39.4 0
19:45 1027 30.33 856 25.28 18.3 65 39 4.1 39.4 0
19:46 1027 30.33 856 25.28 18.3 65 39 4.2 39.6 0
19:47 1027 30.33 856 25.28 18.3 64.9 38 4 39.1 0
19:48 1027 30.33 856 25.28 18.3 64.9 39 4.3 39.7 0
19:49 1027 30.33 856 25.28 18.2 64.8 39 4.3 39.7 0
19:50 1027 30.33 856 25.28 18.2 64.7 40 4.3 39.8 0
19:51 1027 30.33 856 25.28 18.1 64.5 39 4.1 39.5 0
19:52 1027 30.33 856 25.28 18 64.4 38 3.8 38.8 0
19:53 1027 30.33 856 25.28 18.1 64.5 40 4.3 39.7 0
19:54 1027 30.33 856 25.28 18.1 64.6 40 4.4 39.9 0
19:55 1027 30.33 856 25.28 18 64.5 41 4.7 40.4 0
19:56 1027 30.33 856 25.28 17.9 64.3 41 4.8 40.6 0
19:57 1027 30.33 856 25.28 17.7 63.9 42 4.6 40.3 0
19:58 1027 30.33 856 25.28 17.7 63.8 40 4.2 39.5 0
19:59 1027 30.33 856 25.28 17.6 63.8 42 4.8 40.6 0
20:00 1027 30.33 856 25.28 17.6 63.7 41 4.3 39.8 0
20:01 1027 30.33 856 25.28 17.6 63.6 42 4.6 40.2 0
20:02 1027 30.33 856 25.28 17.6 63.6 42 4.5 40 0
20:03 1027 30.33 856 25.28 17.5 63.5 42 4.5 40 0
20:04 1027 30.33 856 25.28 17.5 63.4 41 4.3 39.8 0
20:05 1027 30.33 856 25.28 17.5 63.4 42 4.4 39.9 0
20:06 1027 30.33 856 25.28 17.4 63.4 42 4.6 40.2 0
20:07 1027 30.33 856 25.28 17.4 63.4 41 4.1 39.5 0
20:08 1027 30.33 856 25.28 17.4 63.4 42 4.4 39.9 0
20:09 1027 30.33 856 25.28 17.5 63.4 42 4.4 39.9 0
20:10 1027 30.33 856 25.28 17.5 63.5 41 4.3 39.7 0
20:11 1027 30.33 856 25.28 17.5 63.4 42 4.6 40.3 0
20:12 1027 30.33 856 25.28 17.4 63.4 42 4.7 40.4 0
20:13 1027 30.33 856 25.28 17.4 63.2 43 4.7 40.4 0
20:14 1027 30.33 856 25.28 17.3 63.1 43 4.6 40.3 0
20:15 1027 30.33 856 25.28 17.3 63.1 43 4.6 40.3 0
20:16 1027 30.33 856 25.28 17.2 63 43 4.8 40.6 0
20:17 1027 30.33 856 25.28 17.1 62.9 44 4.8 40.7 0
20:18 1027 30.33 856 25.28 17 62.6 44 4.8 40.6 0
20:19 1027 30.33 856 25.28 16.9 62.5 44 4.6 40.3 0
20:20 1027 30.33 856 25.28 16.8 62.3 44 4.7 40.5 0
20:21 1027 30.33 856 25.28 16.7 62.1 45 4.8 40.6 0
20:22 1027 30.33 856 25.28 16.7 62.1 43 4.3 39.8 0
20:23 1027 30.33 856 25.28 16.8 62.2 42 4.1 39.4 0
20:24 1027 30.33 856 25.28 17 62.5 42 3.9 39.1 0
20:25 1027 30.33 856 25.28 17.1 62.8 43 4.4 39.9 0
20:26 1027 30.33 856 25.28 17.1 62.8 42 4.1 39.4 0
20:27 1027 30.33 856 25.28 17.2 62.9 41 4 39.2 0
20:28 1027 30.33 856 25.28 17.2 63 41 4.1 39.4 0
20:29 1027 30.33 856 25.28 17.2 62.9 42 4.1 39.4 0
20:30 1027 30.33 856 25.28 17.1 62.8 41 4 39.3 0
20:31 1027 30.33 856 25.28 17.1 62.8 41 4 39.2 0
20:32 1027 30.33 856 25.28 17.1 62.7 42 4.3 39.7 0
20:33 1027 30.33 856 25.28 17.1 62.8 42 4.2 39.5 0
20:34 1027 30.33 856 25.28 17.1 62.8 42 4.2 39.6 0
20:35 1027 30.33 856 25.28 17 62.6 43 4.5 40 0
20:36 1027 30.33 856 25.28 16.9 62.4 44 4.6 40.3 0
20:37 1027 30.33 856 25.28 16.7 62.1 45 4.8 40.7 0
20:38 1027 30.33 856 25.28 16.5 61.6 46 4.8 40.6 0
20:39 1027 30.33 856 25.28 16.3 61.3 45 4.6 40.2 0
20:40 1027 30.33 856 25.28 16.1 61 46 4.7 40.4 0
20:41 1027 30.33 856 25.28 16 60.8 45 4.2 39.5 0
20:42 1027 30.33 856 25.28 16.2 61.1 44 3.9 39.1 0
20:43 1027 30.33 856 25.28 16.5 61.6 43 4 39.1 0
20:44 1027 30.33 856 25.28 16.7 62 43 4.2 39.5 0
20:45 1027 30.33 856 25.28 16.6 61.9 44 4.3 39.8 0
20:46 1027 30.33 856 25.28 16.6 61.9 44 4.4 39.9 0
20:47 1027 30.33 856 25.28 16.5 61.8 44 4.5 40.1 0
20:48 1027 30.33 856 25.28 16.4 61.5 45 4.5 40.2 0
20:49 1027 30.33 856 25.28 16.3 61.3 45 4.4 39.9 0
20:50 1027 30.33 856 25.28 16.2 61.2 45 4.5 40.1 0
20:51 1027 30.33 856 25.28 16.2 61.1 46 4.5 40.1 0
20:52 1027 30.33 856 25.28 16.1 61 47 4.7 40.5 0
20:53 1027 30.33 856 25.28 16 60.8 47 4.7 40.4 0
20:54 1027 30.33 856 25.28 15.9 60.6 46 4.6 40.2 0
20:55 1027 30.33 856 25.28 15.9 60.6 46 4.4 39.9 0
20:56 1027 30.33 856 25.28 15.9 60.7 46 4.3 39.8 0
20:57 1027 30.33 856 25.28 16 60.9 45 4.3 39.7 0
20:58 1027 30.33 856 25.28 16.1 61.1 46 4.6 40.2 0
20:59 1027 30.33 856 25.28 16.1 61 46 4.6 40.3 0
21:00 1027 30.33 856 25.28 16 60.8 45 4.3 39.8 0
21:01 1027 30.33 856 25.28 16 60.8 45 4.3 39.8 0
21:02 1027 30.33 856 25.28 16.1 61 45 4.3 39.7 0
21:03 1027 30.33 856 25.28 16.2 61.1 45 4.5 40 0
21:04 1027 30.33 856 25.28 16.1 61.1 46 4.5 40.2 0
21:05 1027 30.33 856 25.28 16.1 61 46 4.5 40 0
21:06 1027 30.33 856 25.28 16 60.8 46 4.5 40.1 0
21:07 1027 30.33 856 25.28 16 60.8 46 4.4 40 0
21:08 1027 30.33 856 25.28 16 60.8 46 4.6 40.3 0
21:09 1027 30.33 856 25.28 15.9 60.6 47 4.6 40.3 0
21:10 1027 30.33 856 25.28 15.7 60.3 47 4.6 40.2 0
21:11 1027 30.33 856 25.28 15.7 60.2 46 4.3 39.8 0
21:12 1027 30.33 856 25.28 15.7 60.2 46 4.3 39.7 0
21:13 1027 30.33 856 25.28 15.8 60.4 46 4.1 39.5 0
21:14 1027 30.33 856 25.28 15.9 60.6 45 4.1 39.4 0
21:15 1027 30.33 856 25.28 16 60.8 45 4.2 39.6 0
21:16 1027 30.33 856 25.28 16.1 60.9 45 4.2 39.5 0
21:17 1027 30.33 856 25.28 16.1 61.1 45 4.4 40 0
21:18 1027 30.33 856 25.28 16.1 60.9 44 4.1 39.3 0
21:19 1027 30.33 856 25.28 16.1 61.1 44 4.1 39.4 0
21:20 1027 30.33 856 25.28 16.2 61.2 44 4.1 39.3 0
21:21 1027 30.33 856 25.28 16.3 61.3 44 4.2 39.5 0
21:22 1027 30.33 856 25.28 16.2 61.2 45 4.3 39.8 0
21:23 1027 30.33 856 25.28 16.1 61 45 4.4 39.9 0
21:24 1027 30.33 856 25.28 16.1 60.9 46 4.4 40 0
21:25 1027 30.33 856 25.28 16 60.8 46 4.5 40.1 0
21:26 1027 30.33 856 25.28 15.9 60.7 46 4.5 40.1 0
21:27 1027 30.33 856 25.28 15.8 60.5 46 4.3 39.8 0
21:28 1027 30.33 856 25.28 15.8 60.5 46 4.4 39.9 0
21:29 1027 30.33 856 25.28 15.8 60.4 46 4.4 39.9 0
21:30 1027 30.33 856 25.28 15.8 60.4 46 4.3 39.7 0
21:31 1027 30.33 856 25.28 15.7 60.3 47 4.6 40.2 0
21:32 1027 30.33 856 25.28 15.6 60.1 48 4.7 40.4 0
21:33 1027 30.33 856 25.28 15.4 59.8 48 4.5 40.2 0
21:34 1027 30.33 856 25.28 15.4 59.7 48 4.5 40.1 0
21:35 1027 30.33 856 25.28 15.4 59.6 48 4.6 40.3 0
21:36 1027 30.33 856 25.28 15.3 59.5 49 4.6 40.3 0
21:37 1027 30.33 856 25.28 15.2 59.4 48 4.4 39.9 0
21:38 1027 30.33 856 25.28 15.3 59.5 48 4.5 40.1 0
21:39 1027 30.33 857 25.31 15.3 59.5 48 4.5 40.1 0
21:40 1027 30.33 857 25.31 15.3 59.5 48 4.3 39.8 0
21:41 1027 30.33 857 25.31 15.4 59.6 48 4.4 40 0
21:42 1027 30.33 857 25.31 15.5 59.8 47 4.3 39.7 0
21:43 1027 30.33 857 25.31 15.5 60 47 4.3 39.8 0
21:44 1027 30.33 857 25.31 15.6 60.1 47 4.3 39.8 0
21:45 1027 30.33 857 25.31 15.7 60.2 46 4.3 39.8 0
21:46 1027 30.33 857 25.31 15.8 60.4 46 4.1 39.4 0
21:47 1027 30.33 857 25.31 15.8 60.5 45 4.1 39.4 0
21:48 1027 30.33 857 25.31 15.9 60.7 46 4.4 39.9 0
21:49 1027 30.33 857 25.31 15.8 60.5 46 4.4 39.9 0
21:50 1027 30.33 857 25.31 15.8 60.5 45 4.2 39.5 0
21:51 1027 30.33 857 25.31 15.8 60.5 46 4.2 39.6 0
21:52 1027 30.33 857 25.31 15.9 60.5 46 4.2 39.6 0
21:53 1027 30.33 857 25.31 15.9 60.6 46 4.3 39.8 0
21:54 1027 30.33 857 25.31 15.9 60.6 46 4.3 39.8 0
21:55 1027 30.33 857 25.31 15.8 60.4 46 4.3 39.8 0
21:56 1027 30.33 857 25.31 15.8 60.4 46 4.2 39.6 0
21:57 1027 30.33 857 25.31 15.8 60.4 46 4.4 39.9 0
21:58 1027 30.33 857 25.31 15.7 60.3 46 4.4 39.9 0
21:59 1027 30.33 857 25.31 15.7 60.2 47 4.4 39.9 0
22:00 1027 30.33 857 25.31 15.7 60.2 46 4.2 39.5 0
22:01 1027 30.33 857 25.31 15.7 60.2 46 4.3 39.8 0
22:02 1027 30.33 857 25.31 15.7 60.2 47 4.4 39.9 0
22:03 1027 30.33 857 25.31 15.6 60.1 47 4.5 40 0
22:04 1027 30.33 857 25.31 15.6 60 47 4.3 39.7 0
22:05 1027 30.33 857 25.31 15.6 60 47 4.4 39.9 0
22:06 1027 30.33 857 25.31 15.5 60 47 4.4 39.9 0
22:07 1027 30.33 857 25.31 15.5 60 48 4.6 40.2 0
22:08 1027 30.33 857 25.31 15.5 59.8 48 4.5 40.1 0
22:09 1027 30.33 857 25.31 15.4 59.8 48 4.6 40.3 0
22:10 1027 30.33 857 25.31 15.3 59.6 48 4.5 40.2 0
22:11 1027 30.33 857 25.31 15.3 59.5 48 4.3 39.8 0
22:12 1027 30.33 857 25.31 15.2 59.3 49 4.5 40.1 0
22:13 1027 30.33 857 25.31 15.1 59.2 49 4.6 40.3 0
22:14 1027 30.33 857 25.31 15 59 50 4.7 40.4 0
22:15 1027 30.33 857 25.31 14.9 58.8 50 4.7 40.5 0
22:16 1028 30.36 857 25.31 14.7 58.5 51 4.7 40.4 0
22:17 1028 30.36 857 25.31 14.7 58.4 51 4.7 40.4 0
22:18 1027 30.33 857 25.31 14.6 58.2 51 4.6 40.2 0
22:19 1027 30.33 857 25.31 14.5 58.1 52 4.8 40.7 0
22:20 1028 30.36 857 25.31 14.4 57.9 52 4.8 40.6 0
22:21 1028 30.36 857 25.31 14.3 57.7 52 4.7 40.5 0
22:22 1028 30.36 857 25.31 14.2 57.6 52 4.6 40.4 0
22:23 1028 30.36 857 25.31 14.2 57.6 52 4.7 40.4 0
22:24 1028 30.36 857 25.31 14.2 57.5 53 4.8 40.6 0
22:25 1028 30.36 857 25.31 14.1 57.3 53 4.7 40.5 0
22:26 1028 30.36 857 25.31 14 57.2 53 4.7 40.4 0
22:27 1028 30.36 857 25.31 14 57.2 53 4.6 40.2 0
22:28 1028 30.36 857 25.31 14.1 57.4 52 4.5 40.1 0
22:29 1028 30.36 857 25.31 14.2 57.5 52 4.6 40.2 0
22:30 1028 30.36 857 25.31 14.2 57.5 52 4.5 40.2 0
22:31 1028 30.36 857 25.31 14.2 57.6 52 4.4 40 0
22:32 1028 30.36 857 25.31 14.3 57.7 52 4.6 40.3 0
22:33 1027 30.33 857 25.31 14.3 57.7 51 4.4 39.9 0
22:34 1027 30.33 857 25.31 14.4 57.9 51 4.5 40.1 0
22:35 1027 30.33 857 25.31 14.4 58 51 4.4 39.8 0
22:36 1027 30.33 857 25.31 14.5 58.1 51 4.5 40 0
22:37 1027 30.33 857 25.31 14.5 58.1 51 4.4 40 0
22:38 1027 30.33 857 25.31 14.5 58.1 51 4.5 40 0
22:39 1027 30.33 857 25.31 14.5 58 51 4.6 40.2 0
22:40 1027 30.33 857 25.31 14.4 57.8 52 4.6 40.3 0
22:41 1027 30.33 857 25.31 14.3 57.7 51 4.4 40 0
22:42 1027 30.33 857 25.31 14.3 57.8 51 4.4 39.9 0
22:43 1027 30.33 857 25.31 14.4 57.8 52 4.6 40.3 0
22:44 1027 30.33 857 25.31 14.3 57.7 52 4.7 40.4 0
22:45 1027 30.33 857 25.31 14.2 57.6 52 4.6 40.3 0
22:46 1027 30.33 857 25.31 14.1 57.3 53 4.8 40.7 0
22:47 1027 30.33 857 25.31 13.9 57.1 53 4.7 40.4 0
22:48 1027 30.33 857 25.31 13.8 56.8 54 4.6 40.3 0
22:49 1027 30.33 857 25.31 13.8 56.9 53 4.6 40.3 0
22:50 1027 30.33 857 25.31 13.8 56.9 54 4.8 40.6 0
22:51 1027 30.33 857 25.31 13.7 56.7 55 4.8 40.6 0
22:52 1027 30.33 857 25.31 13.6 56.5 55 4.8 40.6 0
22:53 1027 30.33 857 25.31 13.5 56.4 55 4.8 40.6 0
22:54 1027 30.33 857 25.31 13.4 56.2 55 4.6 40.3 0
22:55 1027 30.33 857 25.31 13.4 56 56 4.8 40.6 0
22:56 1027 30.33 857 25.31 13.3 55.9 56 4.7 40.4 0
22:57 1027 30.33 857 25.31 13.3 56 56 4.7 40.4 0
22:58 1027 30.33 857 25.31 13.5 56.2 54 4.4 39.9 0
22:59 1027 30.33 857 25.31 13.6 56.4 55 4.7 40.5 0
23:00 1027 30.33 857 25.31 13.5 56.3 55 4.8 40.6 0
23:01 1027 30.33 857 25.31 13.4 56 55 4.6 40.3 0
23:02 1027 30.33 857 25.31 13.3 56 56 4.7 40.5 0
23:03 1027 30.33 857 25.31 13.3 55.9 56 4.7 40.4 0
23:04 1027 30.33 857 25.31 13.3 56 55 4.6 40.3 0
23:05 1027 30.33 857 25.31 13.4 56 55 4.6 40.3 0
23:06 1027 30.33 857 25.31 13.4 56.2 55 4.5 40.2 0
23:07 1027 30.33 857 25.31 13.5 56.3 54 4.5 40.1 0
23:08 1027 30.33 857 25.31 13.6 56.4 54 4.6 40.2 0
23:09 1027 30.33 857 25.31 13.6 56.5 54 4.6 40.3 0
23:10 1027 30.33 857 25.31 13.6 56.5 54 4.6 40.3 0
23:11 1027 30.33 856 25.28 13.6 56.5 54 4.6 40.3 0
23:12 1027 30.33 856 25.28 13.6 56.5 54 4.6 40.2 0
23:13 1027 30.33 856 25.28 13.7 56.6 54 4.6 40.4 0
23:14 1027 30.33 856 25.28 13.7 56.6 54 4.6 40.4 0
23:15 1027 30.33 856 25.28 13.7 56.6 54 4.5 40.2 0
23:16 1027 30.33 856 25.28 13.7 56.7 54 4.6 40.2 0
23:17 1027 30.33 856 25.28 13.7 56.7 53 4.4 39.9 0
23:18 1027 30.33 856 25.28 13.8 56.9 53 4.6 40.2 0
23:19 1027 30.33 856 25.28 13.8 56.9 53 4.4 39.9 0
23:20 1027 30.33 856 25.28 13.9 57 52 4.3 39.8 0
23:21 1027 30.33 856 25.28 14 57.1 53 4.6 40.3 0
23:22 1027 30.33 856 25.28 14 57.1 53 4.7 40.4 0
23:23 1027 30.33 856 25.28 13.8 56.9 54 4.7 40.5 0
23:24 1027 30.33 856 25.28 13.7 56.7 54 4.6 40.3 0
23:25 1027 30.33 856 25.28 13.7 56.6 54 4.6 40.2 0
23:26 1027 30.33 856 25.28 13.8 56.8 53 4.5 40 0
23:27 1027 30.33 856 25.28 13.8 56.9 52 4.3 39.7 0
23:28 1027 30.33 856 25.28 14 57.1 52 4.4 39.9 0
23:29 1027 30.33 856 25.28 14.1 57.3 52 4.3 39.8 0
23:30 1027 30.33 856 25.28 14.1 57.5 51 4.2 39.5 0
23:31 1027 30.33 856 25.28 14.3 57.7 50 4.2 39.5 0
23:32 1027 30.33 856 25.28 14.5 58 50 4.1 39.4 0
23:33 1027 30.33 856 25.28 14.5 58.1 50 4.2 39.6 0
23:34 1027 30.33 856 25.28 14.6 58.2 49 4.2 39.5 0
23:35 1027 30.33 856 25.28 14.6 58.3 49 4.2 39.6 0
23:36 1027 30.33 856 25.28 14.6 58.3 49 4.2 39.6 0
23:37 1027 30.33 856 25.28 14.6 58.3 49 4.2 39.6 0
23:38 1027 30.33 856 25.28 14.7 58.4 49 4.2 39.5 0
23:39 1027 30.33 856 25.28 14.7 58.4 49 4.1 39.5 0
23:40 1027 30.33 856 25.28 14.7 58.4 49 4.2 39.5 0
23:41 1027 30.33 856 25.28 14.7 58.5 49 4.2 39.5 0
23:42 1027 30.33 856 25.28 14.7 58.4 49 4.3 39.7 0
23:43 1027 30.33 856 25.28 14.7 58.4 50 4.4 39.9 0
23:44 1027 30.33 856 25.28 14.6 58.2 50 4.3 39.7 0
23:45 1027 30.33 856 25.28 14.5 58.2 49 4.2 39.5 0
23:46 1027 30.33 856 25.28 14.5 58.2 50 4.3 39.7 0
23:47 1027 30.33 856 25.28 14.5 58.1 50 4.4 39.9 0
23:48 1027 30.33 856 25.28 14.4 57.9 51 4.4 40 0
23:49 1027 30.33 856 25.28 14.3 57.7 51 4.5 40 0
23:50 1027 30.33 856 25.28 14.2 57.5 51 4.3 39.7 0
23:51 1027 30.33 856 25.28 14.2 57.5 51 4.3 39.8 0
23:52 1027 30.33 856 25.28 14.1 57.4 52 4.5 40 0
23:53 1027 30.33 856 25.28 14.1 57.3 51 4.3 39.7 0
23:54 1027 30.33 856 25.28 14.1 57.3 51 4.1 39.4 0
23:55 1027 30.33 856 25.28 14.1 57.4 51 4.3 39.7 0
23:56 1027 30.33 856 25.28 14.1 57.4 51 4.1 39.4 0
23:57 1027 30.33 856 25.28 14.2 57.6 50 4.1 39.5 0
23:58 1027 30.33 856 25.28 14.3 57.7 51 4.4 39.8 0
23:59 1027 30.33 856 25.28 14.3 57.7 51 4.3 39.7 0
24:00 1027 30.33 856 25.28 14.2 57.5 52 4.6 40.2 0